<?xml version="1.0" encoding="UTF-8"?>
<gpx version="1.1" creator="2bulu-scraper" xmlns="http://www.topografix.com/GPX/1/1">
  <metadata><name>江安百竹海生态度假村+漏仓子环线</name><desc>source: 2bulu.com trackId=82123392; exported 2026-08-31T01:43:06.297Z</desc>
    <bounds minlat="28.5083241" minlon="105.1350111" maxlat="28.5246188" maxlon="105.1526879"/>
    <link href="https://www.2bulu.com/track/t-wFjAJimZumPp%252FR2KBg5Tzw%253D%253D.htm"><text>2bulu 源页面</text></link>
  </metadata>
  <wpt lat="28.5157487" lon="105.1515241"><ele>354</ele><name>
        </name></wpt>
  <wpt lat="28.5172059" lon="105.1524898"><ele>361</ele><name>
        </name></wpt>
  <wpt lat="28.5190925" lon="105.1514127"><ele>383</ele><name>
        </name></wpt>
  <wpt lat="28.5202188" lon="105.151342"><ele>384</ele><name>
        </name></wpt>
  <wpt lat="28.520812" lon="105.1517345"><ele>387</ele><name>
        </name></wpt>
  <wpt lat="28.5231605" lon="105.1501537"><ele>399</ele><name>
        </name></wpt>
  <wpt lat="28.5233385" lon="105.1500349"><ele>394</ele><name>
        </name></wpt>
  <wpt lat="28.524309" lon="105.1487846"><ele>426</ele><name>
        </name></wpt>
  <wpt lat="28.5242114" lon="105.1456071"><ele>468</ele><name>
        </name></wpt>
  <wpt lat="28.5238643" lon="105.1450467"><ele>483</ele><name>
        </name></wpt>
  <wpt lat="28.5238643" lon="105.1450467"><ele>483</ele><name>
        </name></wpt>
  <wpt lat="28.5231368" lon="105.1451752"><ele>519</ele><name>
        </name></wpt>
  <wpt lat="28.5234233" lon="105.1453013"><ele>511</ele><name>
        </name></wpt>
  <wpt lat="28.5235984" lon="105.1450728"><ele>507</ele><name>
        </name></wpt>
  <wpt lat="28.5235984" lon="105.1450728"><ele>507</ele><name>
        </name></wpt>
  <wpt lat="28.5236813" lon="105.1450386"><ele>507</ele><name>
        </name></wpt>
  <wpt lat="28.5238117" lon="105.1448068"><ele>489</ele><name>
        </name></wpt>
  <wpt lat="28.5238117" lon="105.1448068"><ele>489</ele><name>
        </name></wpt>
  <wpt lat="28.5238331" lon="105.1450594"><ele>506</ele><name>
        </name></wpt>
  <wpt lat="28.5237995" lon="105.1449811"><ele>503</ele><name>
        </name></wpt>
  <wpt lat="28.5231708" lon="105.145156"><ele>523</ele><name>左转
        </name></wpt>
  <wpt lat="28.5231978" lon="105.1445392"><ele>559</ele><name>
        </name></wpt>
  <wpt lat="28.5232015" lon="105.1435804"><ele>587</ele><name>
        </name></wpt>
  <wpt lat="28.5231111" lon="105.1434375"><ele>594</ele><name>
        </name></wpt>
  <wpt lat="28.5224334" lon="105.1430229"><ele>600</ele><name>
        </name></wpt>
  <wpt lat="28.5223586" lon="105.1436192"><ele>596</ele><name>
        </name></wpt>
  <wpt lat="28.5209514" lon="105.142767"><ele>602</ele><name>左转
        </name></wpt>
  <wpt lat="28.520902" lon="105.1412398"><ele>597</ele><name>
        </name></wpt>
  <wpt lat="28.5213363" lon="105.1410927"><ele>593</ele><name>
        </name></wpt>
  <wpt lat="28.5197029" lon="105.1383976"><ele>595</ele><name>
        </name></wpt>
  <wpt lat="28.5197692" lon="105.1381079"><ele>596</ele><name>
        </name></wpt>
  <wpt lat="28.5197512" lon="105.1377558"><ele>606</ele><name>
        </name></wpt>
  <wpt lat="28.5193268" lon="105.13747"><ele>607</ele><name>直行
        </name></wpt>
  <wpt lat="28.5178314" lon="105.1375282"><ele>621</ele><name>
        </name></wpt>
  <wpt lat="28.5177263" lon="105.1373493"><ele>628</ele><name>
        </name></wpt>
  <wpt lat="28.5173705" lon="105.136821"><ele>650</ele><name>
        </name></wpt>
  <wpt lat="28.5171509" lon="105.1366585"><ele>650</ele><name>
        </name></wpt>
  <wpt lat="28.5170102" lon="105.1367441"><ele>646</ele><name>
        </name></wpt>
  <wpt lat="28.5162726" lon="105.136715"><ele>627</ele><name>
        </name></wpt>
  <wpt lat="28.5162486" lon="105.1366703"><ele>621</ele><name>
        </name></wpt>
  <wpt lat="28.5162468" lon="105.1366692"><ele>621</ele><name>
        </name></wpt>
  <wpt lat="28.5162468" lon="105.1366692"><ele>621</ele><name>
        </name></wpt>
  <wpt lat="28.5158184" lon="105.1360448"><ele>599</ele><name>
        </name></wpt>
  <wpt lat="28.5157645" lon="105.1359631"><ele>601</ele><name>
        </name></wpt>
  <wpt lat="28.5156825" lon="105.1359056"><ele>605</ele><name>
        </name></wpt>
  <wpt lat="28.5157049" lon="105.1356551"><ele>593</ele><name>
        </name></wpt>
  <wpt lat="28.515581" lon="105.135866"><ele>597</ele><name>
        </name></wpt>
  <wpt lat="28.515126" lon="105.1353893"><ele>645</ele><name>
        </name></wpt>
  <wpt lat="28.5137157" lon="105.1350638"><ele>633</ele><name>
        </name></wpt>
  <wpt lat="28.5100679" lon="105.1369028"><ele>616</ele><name>
        </name></wpt>
  <wpt lat="28.5100046" lon="105.1369745"><ele>619</ele><name>
        </name></wpt>
  <wpt lat="28.5089989" lon="105.1386205"><ele>611</ele><name>
        </name></wpt>
  <wpt lat="28.5095073" lon="105.13848"><ele>603</ele><name>
        </name></wpt>
  <wpt lat="28.5096279" lon="105.1383748"><ele>596</ele><name>
        </name></wpt>
  <wpt lat="28.5106411" lon="105.1399874"><ele>499</ele><name>左转
        </name></wpt>
  <wpt lat="28.5162862" lon="105.1445114"><ele>507</ele><name>
        </name></wpt>
  <wpt lat="28.5162833" lon="105.1446745"><ele>497</ele><name>
        </name></wpt>
  <wpt lat="28.5150642" lon="105.1446056"><ele>476</ele><name>
        </name></wpt>
  <wpt lat="28.5143161" lon="105.1445475"><ele>437</ele><name>
        </name></wpt>
  <wpt lat="28.514726" lon="105.1441742"><ele>419</ele><name>
        </name></wpt>
  <wpt lat="28.5126974" lon="105.1443732"><ele>366</ele><name>
        </name></wpt>
  <wpt lat="28.5083881" lon="105.151387"><ele>367</ele><name>
        </name></wpt>
  <trk><name>江安百竹海生态度假村+漏仓子环线</name>
      <trkseg>
        <trkpt lat="28.5083554" lon="105.1513937"><ele>373.36</ele><time>2026-04-11T21:43:36.000Z</time></trkpt>
        <trkpt lat="28.5083412" lon="105.1514819"><ele>373.36</ele><time>2026-04-11T21:44:10.000Z</time></trkpt>
        <trkpt lat="28.5083547" lon="105.1515946"><ele>370.13</ele><time>2026-04-11T21:44:18.000Z</time></trkpt>
        <trkpt lat="28.5084" lon="105.1517155"><ele>367.4</ele><time>2026-04-11T21:44:26.000Z</time></trkpt>
        <trkpt lat="28.50846" lon="105.1518212"><ele>365.5</ele><time>2026-04-11T21:44:34.000Z</time></trkpt>
        <trkpt lat="28.5085386" lon="105.1518886"><ele>363.73</ele><time>2026-04-11T21:44:42.000Z</time></trkpt>
        <trkpt lat="28.5086375" lon="105.1518925"><ele>362.78</ele><time>2026-04-11T21:44:50.000Z</time></trkpt>
        <trkpt lat="28.5087455" lon="105.1518573"><ele>362.46</ele><time>2026-04-11T21:44:58.000Z</time></trkpt>
        <trkpt lat="28.5088453" lon="105.1517811"><ele>360.73</ele><time>2026-04-11T21:45:08.000Z</time></trkpt>
        <trkpt lat="28.5089309" lon="105.1516881"><ele>357.35</ele><time>2026-04-11T21:45:16.000Z</time></trkpt>
        <trkpt lat="28.509017" lon="105.1516231"><ele>355.19</ele><time>2026-04-11T21:45:24.000Z</time></trkpt>
        <trkpt lat="28.5091116" lon="105.1515834"><ele>352.74</ele><time>2026-04-11T21:45:32.000Z</time></trkpt>
        <trkpt lat="28.5092176" lon="105.1515504"><ele>351.06</ele><time>2026-04-11T21:45:42.000Z</time></trkpt>
        <trkpt lat="28.5093176" lon="105.1515374"><ele>350.13</ele><time>2026-04-11T21:45:50.000Z</time></trkpt>
        <trkpt lat="28.5094235" lon="105.1515275"><ele>351.15</ele><time>2026-04-11T21:45:58.000Z</time></trkpt>
        <trkpt lat="28.5095265" lon="105.1515172"><ele>350.05</ele><time>2026-04-11T21:46:06.000Z</time></trkpt>
        <trkpt lat="28.5096316" lon="105.1515045"><ele>349.92</ele><time>2026-04-11T21:46:14.000Z</time></trkpt>
        <trkpt lat="28.5097309" lon="105.1514923"><ele>349.78</ele><time>2026-04-11T21:46:22.000Z</time></trkpt>
        <trkpt lat="28.5098236" lon="105.151484"><ele>349.91</ele><time>2026-04-11T21:46:30.000Z</time></trkpt>
        <trkpt lat="28.5099182" lon="105.1514809"><ele>348.33</ele><time>2026-04-11T21:46:38.000Z</time></trkpt>
        <trkpt lat="28.510021" lon="105.1514746"><ele>347.74</ele><time>2026-04-11T21:46:48.000Z</time></trkpt>
        <trkpt lat="28.5101212" lon="105.1514572"><ele>347.74</ele><time>2026-04-11T21:46:56.000Z</time></trkpt>
        <trkpt lat="28.5102149" lon="105.1514491"><ele>346.01</ele><time>2026-04-11T21:47:04.000Z</time></trkpt>
        <trkpt lat="28.5103157" lon="105.1514673"><ele>345.22</ele><time>2026-04-11T21:47:12.000Z</time></trkpt>
        <trkpt lat="28.5104087" lon="105.1514929"><ele>344.8</ele><time>2026-04-11T21:47:20.000Z</time></trkpt>
        <trkpt lat="28.5104783" lon="105.1515722"><ele>343.34</ele><time>2026-04-11T21:47:30.000Z</time></trkpt>
        <trkpt lat="28.5104942" lon="105.151689"><ele>341.99</ele><time>2026-04-11T21:47:38.000Z</time></trkpt>
        <trkpt lat="28.5105249" lon="105.1518035"><ele>341.4</ele><time>2026-04-11T21:47:46.000Z</time></trkpt>
        <trkpt lat="28.5106033" lon="105.1518785"><ele>341.65</ele><time>2026-04-11T21:47:54.000Z</time></trkpt>
        <trkpt lat="28.5106992" lon="105.1519071"><ele>341.88</ele><time>2026-04-11T21:48:04.000Z</time></trkpt>
        <trkpt lat="28.510812" lon="105.1518962"><ele>341.53</ele><time>2026-04-11T21:48:26.000Z</time></trkpt>
        <trkpt lat="28.5109179" lon="105.1518745"><ele>341.34</ele><time>2026-04-11T21:48:34.000Z</time></trkpt>
        <trkpt lat="28.5110185" lon="105.1518352"><ele>343.59</ele><time>2026-04-11T21:48:42.000Z</time></trkpt>
        <trkpt lat="28.5111262" lon="105.1518322"><ele>345.34</ele><time>2026-04-11T21:48:54.000Z</time></trkpt>
        <trkpt lat="28.511226" lon="105.1518427"><ele>348.05</ele><time>2026-04-11T21:49:02.000Z</time></trkpt>
        <trkpt lat="28.5113261" lon="105.1518761"><ele>349.53</ele><time>2026-04-11T21:49:12.000Z</time></trkpt>
        <trkpt lat="28.5114271" lon="105.1519257"><ele>351.91</ele><time>2026-04-11T21:49:22.000Z</time></trkpt>
        <trkpt lat="28.5115155" lon="105.1519708"><ele>352.38</ele><time>2026-04-11T21:49:30.000Z</time></trkpt>
        <trkpt lat="28.5116115" lon="105.1519933"><ele>352.65</ele><time>2026-04-11T21:49:40.000Z</time></trkpt>
        <trkpt lat="28.5117088" lon="105.1519902"><ele>352.41</ele><time>2026-04-11T21:49:48.000Z</time></trkpt>
        <trkpt lat="28.5118043" lon="105.1520142"><ele>354.41</ele><time>2026-04-11T21:49:56.000Z</time></trkpt>
        <trkpt lat="28.5119077" lon="105.1520467"><ele>355.51</ele><time>2026-04-11T21:50:06.000Z</time></trkpt>
        <trkpt lat="28.5119884" lon="105.1521165"><ele>356.23</ele><time>2026-04-11T21:50:14.000Z</time></trkpt>
        <trkpt lat="28.5120612" lon="105.1521326"><ele>356.47</ele><time>2026-04-11T21:50:22.000Z</time></trkpt>
        <trkpt lat="28.5121528" lon="105.1521522"><ele>356.44</ele><time>2026-04-11T21:50:36.000Z</time></trkpt>
        <trkpt lat="28.5122443" lon="105.1521113"><ele>356.44</ele><time>2026-04-11T21:50:44.000Z</time></trkpt>
        <trkpt lat="28.5123399" lon="105.1521161"><ele>357.89</ele><time>2026-04-11T21:50:52.000Z</time></trkpt>
        <trkpt lat="28.512423" lon="105.1520693"><ele>358.77</ele><time>2026-04-11T21:51:00.000Z</time></trkpt>
        <trkpt lat="28.5125114" lon="105.1520063"><ele>359.23</ele><time>2026-04-11T21:51:12.000Z</time></trkpt>
        <trkpt lat="28.5125368" lon="105.1519903"><ele>358.49</ele><time>2026-04-11T21:51:15.000Z</time></trkpt>
        <trkpt lat="28.5126023" lon="105.1519682"><ele>357.58</ele><time>2026-04-11T21:51:36.000Z</time></trkpt>
        <trkpt lat="28.5126864" lon="105.1519501"><ele>356.9</ele><time>2026-04-11T21:51:44.000Z</time></trkpt>
        <trkpt lat="28.5127653" lon="105.1519615"><ele>355.88</ele><time>2026-04-11T21:51:54.000Z</time></trkpt>
        <trkpt lat="28.5128121" lon="105.1520471"><ele>353.49</ele><time>2026-04-11T21:52:04.000Z</time></trkpt>
        <trkpt lat="28.5128611" lon="105.1521603"><ele>350.69</ele><time>2026-04-11T21:52:14.000Z</time></trkpt>
        <trkpt lat="28.5128256" lon="105.1522571"><ele>348.18</ele><time>2026-04-11T21:52:20.000Z</time></trkpt>
        <trkpt lat="28.5127959" lon="105.1523651"><ele>346.48</ele><time>2026-04-11T21:52:32.000Z</time></trkpt>
        <trkpt lat="28.5128109" lon="105.1524756"><ele>345.13</ele><time>2026-04-11T21:52:44.000Z</time></trkpt>
        <trkpt lat="28.5128553" lon="105.152573"><ele>344.7</ele><time>2026-04-11T21:52:56.000Z</time></trkpt>
        <trkpt lat="28.5129409" lon="105.1526342"><ele>346.03</ele><time>2026-04-11T21:53:04.000Z</time></trkpt>
        <trkpt lat="28.5130416" lon="105.1526879"><ele>347.82</ele><time>2026-04-11T21:53:16.000Z</time></trkpt>
        <trkpt lat="28.5131512" lon="105.1526843"><ele>347.72</ele><time>2026-04-11T21:53:26.000Z</time></trkpt>
        <trkpt lat="28.5132547" lon="105.1526498"><ele>347.82</ele><time>2026-04-11T21:53:34.000Z</time></trkpt>
        <trkpt lat="28.5133428" lon="105.1525947"><ele>348.74</ele><time>2026-04-11T21:53:44.000Z</time></trkpt>
        <trkpt lat="28.513438" lon="105.1525709"><ele>349.22</ele><time>2026-04-11T21:53:54.000Z</time></trkpt>
        <trkpt lat="28.5135249" lon="105.1525238"><ele>351.53</ele><time>2026-04-11T21:54:02.000Z</time></trkpt>
        <trkpt lat="28.5136026" lon="105.1524637"><ele>354.1</ele><time>2026-04-11T21:54:08.000Z</time></trkpt>
        <trkpt lat="28.5136734" lon="105.1523846"><ele>356.19</ele><time>2026-04-11T21:54:18.000Z</time></trkpt>
        <trkpt lat="28.5137431" lon="105.1522999"><ele>357.76</ele><time>2026-04-11T21:54:26.000Z</time></trkpt>
        <trkpt lat="28.5138224" lon="105.1522277"><ele>357.41</ele><time>2026-04-11T21:54:36.000Z</time></trkpt>
        <trkpt lat="28.5139257" lon="105.1522111"><ele>356.88</ele><time>2026-04-11T21:54:46.000Z</time></trkpt>
        <trkpt lat="28.5140216" lon="105.1521779"><ele>356.94</ele><time>2026-04-11T21:54:54.000Z</time></trkpt>
        <trkpt lat="28.5141188" lon="105.152161"><ele>356.93</ele><time>2026-04-11T21:55:04.000Z</time></trkpt>
        <trkpt lat="28.5142209" lon="105.1521546"><ele>358.82</ele><time>2026-04-11T21:55:14.000Z</time></trkpt>
        <trkpt lat="28.5143228" lon="105.1521621"><ele>359.07</ele><time>2026-04-11T21:55:22.000Z</time></trkpt>
        <trkpt lat="28.5144148" lon="105.1521249"><ele>358.74</ele><time>2026-04-11T21:55:32.000Z</time></trkpt>
        <trkpt lat="28.5145037" lon="105.1520994"><ele>358.46</ele><time>2026-04-11T21:55:40.000Z</time></trkpt>
        <trkpt lat="28.5146024" lon="105.1520759"><ele>356.43</ele><time>2026-04-11T21:55:50.000Z</time></trkpt>
        <trkpt lat="28.5146974" lon="105.152053"><ele>353.98</ele><time>2026-04-11T21:55:58.000Z</time></trkpt>
        <trkpt lat="28.5147507" lon="105.1519592"><ele>350.92</ele><time>2026-04-11T21:56:06.000Z</time></trkpt>
        <trkpt lat="28.5148059" lon="105.1518572"><ele>347.8</ele><time>2026-04-11T21:56:14.000Z</time></trkpt>
        <trkpt lat="28.5148738" lon="105.1517617"><ele>346.09</ele><time>2026-04-11T21:56:24.000Z</time></trkpt>
        <trkpt lat="28.514922" lon="105.1516619"><ele>345.02</ele><time>2026-04-11T21:56:34.000Z</time></trkpt>
        <trkpt lat="28.5149339" lon="105.1515439"><ele>344.17</ele><time>2026-04-11T21:56:46.000Z</time></trkpt>
        <trkpt lat="28.5149719" lon="105.15145"><ele>343.83</ele><time>2026-04-11T21:56:56.000Z</time></trkpt>
        <trkpt lat="28.5149946" lon="105.1513968"><ele>345.41</ele><time>2026-04-11T21:57:08.000Z</time></trkpt>
        <trkpt lat="28.5151008" lon="105.1514279"><ele>344.39</ele><time>2026-04-11T21:57:16.000Z</time></trkpt>
        <trkpt lat="28.5152106" lon="105.1514109"><ele>345.76</ele><time>2026-04-11T21:57:30.000Z</time></trkpt>
        <trkpt lat="28.5153246" lon="105.1514001"><ele>345.22</ele><time>2026-04-11T21:57:40.000Z</time></trkpt>
        <trkpt lat="28.5154242" lon="105.1514339"><ele>345.5</ele><time>2026-04-11T21:57:50.000Z</time></trkpt>
        <trkpt lat="28.5155254" lon="105.1514612"><ele>345.72</ele><time>2026-04-11T21:58:00.000Z</time></trkpt>
        <trkpt lat="28.5156166" lon="105.151507"><ele>344.36</ele><time>2026-04-11T21:58:10.000Z</time></trkpt>
        <trkpt lat="28.5156507" lon="105.1515202"><ele>344.7</ele><time>2026-04-11T21:58:14.000Z</time></trkpt>
        <trkpt lat="28.5157243" lon="105.1515543"><ele>345.82</ele><time>2026-04-11T21:58:26.000Z</time></trkpt>
        <trkpt lat="28.5157487" lon="105.1515241"><ele>348.56</ele><time>2026-04-11T21:58:30.000Z</time></trkpt>
        <trkpt lat="28.5158316" lon="105.1515112"><ele>350.95</ele><time>2026-04-11T21:58:56.000Z</time></trkpt>
        <trkpt lat="28.5159252" lon="105.1515244"><ele>355.18</ele><time>2026-04-11T21:59:06.000Z</time></trkpt>
        <trkpt lat="28.516018" lon="105.1515482"><ele>359.84</ele><time>2026-04-11T21:59:16.000Z</time></trkpt>
        <trkpt lat="28.5161102" lon="105.1515473"><ele>364.51</ele><time>2026-04-11T21:59:24.000Z</time></trkpt>
        <trkpt lat="28.5162044" lon="105.151565"><ele>365.73</ele><time>2026-04-11T21:59:32.000Z</time></trkpt>
        <trkpt lat="28.5162998" lon="105.1515688"><ele>367.84</ele><time>2026-04-11T21:59:42.000Z</time></trkpt>
        <trkpt lat="28.516322" lon="105.1515625"><ele>370.56</ele><time>2026-04-11T21:59:46.000Z</time></trkpt>
        <trkpt lat="28.5163803" lon="105.1515953"><ele>373.41</ele><time>2026-04-11T22:00:14.000Z</time></trkpt>
        <trkpt lat="28.516441" lon="105.1516642"><ele>370.81</ele><time>2026-04-11T22:00:22.000Z</time></trkpt>
        <trkpt lat="28.5164713" lon="105.1517652"><ele>369.33</ele><time>2026-04-11T22:00:38.000Z</time></trkpt>
        <trkpt lat="28.5164922" lon="105.1518861"><ele>369.01</ele><time>2026-04-11T22:00:48.000Z</time></trkpt>
        <trkpt lat="28.5165179" lon="105.1519989"><ele>368.76</ele><time>2026-04-11T22:01:04.000Z</time></trkpt>
        <trkpt lat="28.5165538" lon="105.1520996"><ele>367.18</ele><time>2026-04-11T22:01:20.000Z</time></trkpt>
        <trkpt lat="28.5165768" lon="105.1522138"><ele>363.35</ele><time>2026-04-11T22:01:34.000Z</time></trkpt>
        <trkpt lat="28.5166539" lon="105.1522451"><ele>358.48</ele><time>2026-04-11T22:01:46.000Z</time></trkpt>
        <trkpt lat="28.5167143" lon="105.1523212"><ele>355.9</ele><time>2026-04-11T22:01:54.000Z</time></trkpt>
        <trkpt lat="28.5167639" lon="105.1524099"><ele>352.89</ele><time>2026-04-11T22:02:02.000Z</time></trkpt>
        <trkpt lat="28.5168354" lon="105.1525"><ele>350.74</ele><time>2026-04-11T22:02:12.000Z</time></trkpt>
        <trkpt lat="28.516905" lon="105.1525764"><ele>349.46</ele><time>2026-04-11T22:02:20.000Z</time></trkpt>
        <trkpt lat="28.5169847" lon="105.1526522"><ele>348.9</ele><time>2026-04-11T22:02:32.000Z</time></trkpt>
        <trkpt lat="28.5170103" lon="105.1526632"><ele>348.63</ele><time>2026-04-11T22:02:36.000Z</time></trkpt>
        <trkpt lat="28.5170797" lon="105.1526684"><ele>348.75</ele><time>2026-04-11T22:02:50.000Z</time></trkpt>
        <trkpt lat="28.517145" lon="105.1526059"><ele>350.72</ele><time>2026-04-11T22:02:56.000Z</time></trkpt>
        <trkpt lat="28.51721" lon="105.1525132"><ele>352.85</ele><time>2026-04-11T22:03:10.000Z</time></trkpt>
        <trkpt lat="28.5172059" lon="105.1524898"><ele>356.4</ele><time>2026-04-11T22:03:20.000Z</time></trkpt>
        <trkpt lat="28.5172642" lon="105.1524953"><ele>358.27</ele><time>2026-04-11T22:03:48.000Z</time></trkpt>
        <trkpt lat="28.5173506" lon="105.1524912"><ele>357.94</ele><time>2026-04-11T22:04:02.000Z</time></trkpt>
        <trkpt lat="28.5174237" lon="105.1524155"><ele>359.13</ele><time>2026-04-11T22:04:16.000Z</time></trkpt>
        <trkpt lat="28.5174941" lon="105.1523352"><ele>361.04</ele><time>2026-04-11T22:04:24.000Z</time></trkpt>
        <trkpt lat="28.5175706" lon="105.1522721"><ele>361.54</ele><time>2026-04-11T22:04:36.000Z</time></trkpt>
        <trkpt lat="28.5176199" lon="105.1521681"><ele>363.37</ele><time>2026-04-11T22:04:48.000Z</time></trkpt>
        <trkpt lat="28.5176841" lon="105.1520767"><ele>364.76</ele><time>2026-04-11T22:04:58.000Z</time></trkpt>
        <trkpt lat="28.5177435" lon="105.1519935"><ele>364.71</ele><time>2026-04-11T22:05:08.000Z</time></trkpt>
        <trkpt lat="28.5177836" lon="105.1518912"><ele>363.88</ele><time>2026-04-11T22:05:20.000Z</time></trkpt>
        <trkpt lat="28.5178553" lon="105.1518384"><ele>362.25</ele><time>2026-04-11T22:05:34.000Z</time></trkpt>
        <trkpt lat="28.5179052" lon="105.15176"><ele>364.25</ele><time>2026-04-11T22:05:50.000Z</time></trkpt>
        <trkpt lat="28.5179444" lon="105.1516685"><ele>365.88</ele><time>2026-04-11T22:06:00.000Z</time></trkpt>
        <trkpt lat="28.5179539" lon="105.1516348"><ele>366.83</ele><time>2026-04-11T22:06:06.000Z</time></trkpt>
        <trkpt lat="28.5180155" lon="105.1515861"><ele>366.03</ele><time>2026-04-11T22:06:26.000Z</time></trkpt>
        <trkpt lat="28.5180353" lon="105.1515573"><ele>367.13</ele><time>2026-04-11T22:06:30.000Z</time></trkpt>
        <trkpt lat="28.5181076" lon="105.1515295"><ele>366.93</ele><time>2026-04-11T22:06:44.000Z</time></trkpt>
        <trkpt lat="28.5181973" lon="105.1514969"><ele>368.48</ele><time>2026-04-11T22:06:54.000Z</time></trkpt>
        <trkpt lat="28.5182942" lon="105.1514778"><ele>370.79</ele><time>2026-04-11T22:07:04.000Z</time></trkpt>
        <trkpt lat="28.518399" lon="105.1514662"><ele>372.52</ele><time>2026-04-11T22:07:16.000Z</time></trkpt>
        <trkpt lat="28.5184981" lon="105.1514633"><ele>372.36</ele><time>2026-04-11T22:07:26.000Z</time></trkpt>
        <trkpt lat="28.5185915" lon="105.1514457"><ele>374.4</ele><time>2026-04-11T22:07:36.000Z</time></trkpt>
        <trkpt lat="28.5186899" lon="105.1514111"><ele>374.93</ele><time>2026-04-11T22:08:04.000Z</time></trkpt>
        <trkpt lat="28.5187965" lon="105.1513786"><ele>373.05</ele><time>2026-04-11T22:08:12.000Z</time></trkpt>
        <trkpt lat="28.5189013" lon="105.1513815"><ele>371.17</ele><time>2026-04-11T22:08:22.000Z</time></trkpt>
        <trkpt lat="28.5190019" lon="105.1513891"><ele>372.09</ele><time>2026-04-11T22:08:32.000Z</time></trkpt>
        <trkpt lat="28.5190925" lon="105.1514127"><ele>375.33</ele><time>2026-04-11T22:08:40.000Z</time></trkpt>
        <trkpt lat="28.5191667" lon="105.1514857"><ele>378.48</ele><time>2026-04-11T22:08:54.000Z</time></trkpt>
        <trkpt lat="28.5191939" lon="105.1515239"><ele>380.51</ele><time>2026-04-11T22:09:08.000Z</time></trkpt>
        <trkpt lat="28.5192396" lon="105.1516072"><ele>381.13</ele><time>2026-04-11T22:09:26.000Z</time></trkpt>
        <trkpt lat="28.5193313" lon="105.1516311"><ele>380.73</ele><time>2026-04-11T22:09:32.000Z</time></trkpt>
        <trkpt lat="28.5193613" lon="105.1516047"><ele>381.65</ele><time>2026-04-11T22:09:36.000Z</time></trkpt>
        <trkpt lat="28.5193336" lon="105.1515146"><ele>381.86</ele><time>2026-04-11T22:09:40.000Z</time></trkpt>
        <trkpt lat="28.5192932" lon="105.1513964"><ele>381.88</ele><time>2026-04-11T22:09:48.000Z</time></trkpt>
        <trkpt lat="28.5193469" lon="105.151356"><ele>381.69</ele><time>2026-04-11T22:10:20.000Z</time></trkpt>
        <trkpt lat="28.5194415" lon="105.1513255"><ele>381.65</ele><time>2026-04-11T22:10:36.000Z</time></trkpt>
        <trkpt lat="28.5195517" lon="105.1513262"><ele>382.25</ele><time>2026-04-11T22:10:52.000Z</time></trkpt>
        <trkpt lat="28.5196421" lon="105.1512885"><ele>381.87</ele><time>2026-04-11T22:11:08.000Z</time></trkpt>
        <trkpt lat="28.5197353" lon="105.1512447"><ele>384.38</ele><time>2026-04-11T22:11:26.000Z</time></trkpt>
        <trkpt lat="28.5198321" lon="105.151279"><ele>385.97</ele><time>2026-04-11T22:11:36.000Z</time></trkpt>
        <trkpt lat="28.5199241" lon="105.1513093"><ele>386.26</ele><time>2026-04-11T22:11:46.000Z</time></trkpt>
        <trkpt lat="28.5200245" lon="105.1512959"><ele>385.5</ele><time>2026-04-11T22:11:58.000Z</time></trkpt>
        <trkpt lat="28.5201195" lon="105.1513051"><ele>385.48</ele><time>2026-04-11T22:12:08.000Z</time></trkpt>
        <trkpt lat="28.5202188" lon="105.151342"><ele>385.68</ele><time>2026-04-11T22:12:20.000Z</time></trkpt>
        <trkpt lat="28.5202941" lon="105.1514173"><ele>384.81</ele><time>2026-04-11T22:12:32.000Z</time></trkpt>
        <trkpt lat="28.5203786" lon="105.1514856"><ele>384.78</ele><time>2026-04-11T22:12:42.000Z</time></trkpt>
        <trkpt lat="28.5204627" lon="105.1515477"><ele>383.81</ele><time>2026-04-11T22:12:52.000Z</time></trkpt>
        <trkpt lat="28.5205508" lon="105.1516229"><ele>383.62</ele><time>2026-04-11T22:13:02.000Z</time></trkpt>
        <trkpt lat="28.520635" lon="105.1516809"><ele>382.93</ele><time>2026-04-11T22:13:10.000Z</time></trkpt>
        <trkpt lat="28.5207244" lon="105.1517065"><ele>385.58</ele><time>2026-04-11T22:13:24.000Z</time></trkpt>
        <trkpt lat="28.520812" lon="105.1517345"><ele>387.99</ele><time>2026-04-11T22:13:36.000Z</time></trkpt>
        <trkpt lat="28.5207614" lon="105.1517426"><ele>387.64</ele><time>2026-04-11T22:14:26.000Z</time></trkpt>
        <trkpt lat="28.5206539" lon="105.1517384"><ele>385.29</ele><time>2026-04-11T22:14:48.000Z</time></trkpt>
        <trkpt lat="28.5206187" lon="105.1517624"><ele>383.28</ele><time>2026-04-11T22:14:52.000Z</time></trkpt>
        <trkpt lat="28.5207068" lon="105.1517535"><ele>382.88</ele><time>2026-04-11T22:15:16.000Z</time></trkpt>
        <trkpt lat="28.5208063" lon="105.1517209"><ele>380.91</ele><time>2026-04-11T22:15:20.000Z</time></trkpt>
        <trkpt lat="28.5207208" lon="105.1517124"><ele>380.29</ele><time>2026-04-11T22:15:26.000Z</time></trkpt>
        <trkpt lat="28.5207487" lon="105.1517351"><ele>380.64</ele><time>2026-04-11T22:15:42.000Z</time></trkpt>
        <trkpt lat="28.52083" lon="105.1517416"><ele>380.34</ele><time>2026-04-11T22:15:52.000Z</time></trkpt>
        <trkpt lat="28.5209208" lon="105.1517325"><ele>379.14</ele><time>2026-04-11T22:16:02.000Z</time></trkpt>
        <trkpt lat="28.5209995" lon="105.1516534"><ele>377.21</ele><time>2026-04-11T22:16:14.000Z</time></trkpt>
        <trkpt lat="28.5210737" lon="105.15156"><ele>376.26</ele><time>2026-04-11T22:16:24.000Z</time></trkpt>
        <trkpt lat="28.5211388" lon="105.15146"><ele>375.49</ele><time>2026-04-11T22:16:34.000Z</time></trkpt>
        <trkpt lat="28.5212214" lon="105.1514044"><ele>375.55</ele><time>2026-04-11T22:16:44.000Z</time></trkpt>
        <trkpt lat="28.5213256" lon="105.1513862"><ele>379.17</ele><time>2026-04-11T22:16:55.000Z</time></trkpt>
        <trkpt lat="28.5213914" lon="105.151371"><ele>383.85</ele><time>2026-04-11T22:17:00.000Z</time></trkpt>
        <trkpt lat="28.521482" lon="105.1513686"><ele>386.35</ele><time>2026-04-11T22:17:34.000Z</time></trkpt>
        <trkpt lat="28.5215768" lon="105.1513498"><ele>386.78</ele><time>2026-04-11T22:17:42.000Z</time></trkpt>
        <trkpt lat="28.5216718" lon="105.1513392"><ele>386.45</ele><time>2026-04-11T22:17:50.000Z</time></trkpt>
        <trkpt lat="28.5217471" lon="105.1512705"><ele>386.47</ele><time>2026-04-11T22:18:00.000Z</time></trkpt>
        <trkpt lat="28.5217839" lon="105.1511637"><ele>385.2</ele><time>2026-04-11T22:18:10.000Z</time></trkpt>
        <trkpt lat="28.521753" lon="105.1510601"><ele>383.16</ele><time>2026-04-11T22:18:22.000Z</time></trkpt>
        <trkpt lat="28.5216844" lon="105.1509628"><ele>381.44</ele><time>2026-04-11T22:18:32.000Z</time></trkpt>
        <trkpt lat="28.5216612" lon="105.150854"><ele>380.94</ele><time>2026-04-11T22:18:40.000Z</time></trkpt>
        <trkpt lat="28.5216767" lon="105.1507389"><ele>379.02</ele><time>2026-04-11T22:18:48.000Z</time></trkpt>
        <trkpt lat="28.521729" lon="105.1506394"><ele>379.18</ele><time>2026-04-11T22:18:56.000Z</time></trkpt>
        <trkpt lat="28.521826" lon="105.1505843"><ele>380.88</ele><time>2026-04-11T22:19:06.000Z</time></trkpt>
        <trkpt lat="28.5219271" lon="105.1505741"><ele>383.3</ele><time>2026-04-11T22:19:14.000Z</time></trkpt>
        <trkpt lat="28.5220337" lon="105.1506153"><ele>383.82</ele><time>2026-04-11T22:19:26.000Z</time></trkpt>
        <trkpt lat="28.5221268" lon="105.1506787"><ele>383.63</ele><time>2026-04-11T22:19:34.000Z</time></trkpt>
        <trkpt lat="28.5221999" lon="105.1507565"><ele>382.99</ele><time>2026-04-11T22:19:44.000Z</time></trkpt>
        <trkpt lat="28.5222641" lon="105.1508509"><ele>382.64</ele><time>2026-04-11T22:19:54.000Z</time></trkpt>
        <trkpt lat="28.5223436" lon="105.1508988"><ele>383.97</ele><time>2026-04-11T22:20:04.000Z</time></trkpt>
        <trkpt lat="28.5224303" lon="105.1508847"><ele>387.18</ele><time>2026-04-11T22:20:14.000Z</time></trkpt>
        <trkpt lat="28.5225122" lon="105.1508086"><ele>387.49</ele><time>2026-04-11T22:20:24.000Z</time></trkpt>
        <trkpt lat="28.5225597" lon="105.1507055"><ele>386.84</ele><time>2026-04-11T22:20:32.000Z</time></trkpt>
        <trkpt lat="28.5226036" lon="105.1505967"><ele>385.69</ele><time>2026-04-11T22:20:42.000Z</time></trkpt>
        <trkpt lat="28.5226482" lon="105.1504908"><ele>383.92</ele><time>2026-04-11T22:20:52.000Z</time></trkpt>
        <trkpt lat="28.5227158" lon="105.1504211"><ele>381.82</ele><time>2026-04-11T22:21:00.000Z</time></trkpt>
        <trkpt lat="28.5227297" lon="105.1504069"><ele>382.15</ele><time>2026-04-11T22:21:02.000Z</time></trkpt>
        <trkpt lat="28.5227902" lon="105.1503775"><ele>381.85</ele><time>2026-04-11T22:21:12.000Z</time></trkpt>
        <trkpt lat="28.522875" lon="105.1503588"><ele>382.7</ele><time>2026-04-11T22:21:22.000Z</time></trkpt>
        <trkpt lat="28.5229589" lon="105.1503098"><ele>384.6</ele><time>2026-04-11T22:21:32.000Z</time></trkpt>
        <trkpt lat="28.5230474" lon="105.1502701"><ele>386.22</ele><time>2026-04-11T22:21:42.000Z</time></trkpt>
        <trkpt lat="28.523138" lon="105.1502156"><ele>388.33</ele><time>2026-04-11T22:21:54.000Z</time></trkpt>
        <trkpt lat="28.5231605" lon="105.1501537"><ele>392.24</ele><time>2026-04-11T22:21:58.000Z</time></trkpt>
        <trkpt lat="28.5232124" lon="105.1500712"><ele>395.06</ele><time>2026-04-11T22:22:10.000Z</time></trkpt>
        <trkpt lat="28.523262" lon="105.150056"><ele>394.63</ele><time>2026-04-11T22:22:18.000Z</time></trkpt>
        <trkpt lat="28.5233385" lon="105.1500349"><ele>394.4</ele><time>2026-04-11T22:22:48.000Z</time></trkpt>
        <trkpt lat="28.5233451" lon="105.1499473"><ele>394.05</ele><time>2026-04-11T22:22:58.000Z</time></trkpt>
        <trkpt lat="28.5233161" lon="105.1498449"><ele>395.87</ele><time>2026-04-11T22:23:06.000Z</time></trkpt>
        <trkpt lat="28.52329" lon="105.149729"><ele>397.52</ele><time>2026-04-11T22:23:14.000Z</time></trkpt>
        <trkpt lat="28.5233043" lon="105.1496054"><ele>398</ele><time>2026-04-11T22:23:22.000Z</time></trkpt>
        <trkpt lat="28.5233103" lon="105.1494871"><ele>399.05</ele><time>2026-04-11T22:23:32.000Z</time></trkpt>
        <trkpt lat="28.52339" lon="105.1495039"><ele>399.21</ele><time>2026-04-11T22:23:56.000Z</time></trkpt>
        <trkpt lat="28.5234809" lon="105.1495596"><ele>399.72</ele><time>2026-04-11T22:24:08.000Z</time></trkpt>
        <trkpt lat="28.5235866" lon="105.1496019"><ele>399.82</ele><time>2026-04-11T22:24:20.000Z</time></trkpt>
        <trkpt lat="28.5236867" lon="105.1495954"><ele>402.39</ele><time>2026-04-11T22:24:32.000Z</time></trkpt>
        <trkpt lat="28.5237839" lon="105.1495939"><ele>406.56</ele><time>2026-04-11T22:24:42.000Z</time></trkpt>
        <trkpt lat="28.5238927" lon="105.1495787"><ele>408.79</ele><time>2026-04-11T22:24:54.000Z</time></trkpt>
        <trkpt lat="28.5239908" lon="105.1495357"><ele>410.42</ele><time>2026-04-11T22:25:04.000Z</time></trkpt>
        <trkpt lat="28.5240775" lon="105.1494806"><ele>412.49</ele><time>2026-04-11T22:25:14.000Z</time></trkpt>
        <trkpt lat="28.5241585" lon="105.149411"><ele>414.6</ele><time>2026-04-11T22:25:24.000Z</time></trkpt>
        <trkpt lat="28.5242187" lon="105.1493252"><ele>417.01</ele><time>2026-04-11T22:25:34.000Z</time></trkpt>
        <trkpt lat="28.5242614" lon="105.1492187"><ele>418.89</ele><time>2026-04-11T22:25:46.000Z</time></trkpt>
        <trkpt lat="28.5242977" lon="105.1491102"><ele>418.17</ele><time>2026-04-11T22:25:58.000Z</time></trkpt>
        <trkpt lat="28.5243482" lon="105.1490172"><ele>417.81</ele><time>2026-04-11T22:26:16.000Z</time></trkpt>
        <trkpt lat="28.5243465" lon="105.1489112"><ele>415.8</ele><time>2026-04-11T22:26:32.000Z</time></trkpt>
        <trkpt lat="28.5243041" lon="105.1488171"><ele>418.26</ele><time>2026-04-11T22:26:42.000Z</time></trkpt>
        <trkpt lat="28.524309" lon="105.1487846"><ele>423.01</ele><time>2026-04-11T22:26:52.000Z</time></trkpt>
        <trkpt lat="28.5242294" lon="105.1487575"><ele>424.26</ele><time>2026-04-11T22:27:12.000Z</time></trkpt>
        <trkpt lat="28.5241266" lon="105.148767"><ele>425.05</ele><time>2026-04-11T22:27:22.000Z</time></trkpt>
        <trkpt lat="28.5240316" lon="105.1487207"><ele>425.19</ele><time>2026-04-11T22:28:28.000Z</time></trkpt>
        <trkpt lat="28.5240169" lon="105.1486099"><ele>426.3</ele><time>2026-04-11T22:28:38.000Z</time></trkpt>
        <trkpt lat="28.5239983" lon="105.1485645"><ele>425.16</ele><time>2026-04-11T22:28:48.000Z</time></trkpt>
        <trkpt lat="28.5240042" lon="105.14864"><ele>421.62</ele><time>2026-04-11T22:29:28.000Z</time></trkpt>
        <trkpt lat="28.5240195" lon="105.148749"><ele>420.2</ele><time>2026-04-11T22:29:44.000Z</time></trkpt>
        <trkpt lat="28.5239282" lon="105.148755"><ele>419.36</ele><time>2026-04-11T22:31:12.000Z</time></trkpt>
        <trkpt lat="28.5238384" lon="105.148728"><ele>419.12</ele><time>2026-04-11T22:31:22.000Z</time></trkpt>
        <trkpt lat="28.5237515" lon="105.1486978"><ele>419.17</ele><time>2026-04-11T22:31:32.000Z</time></trkpt>
        <trkpt lat="28.5236728" lon="105.1486365"><ele>420.15</ele><time>2026-04-11T22:31:42.000Z</time></trkpt>
        <trkpt lat="28.5236039" lon="105.1485596"><ele>421.53</ele><time>2026-04-11T22:31:54.000Z</time></trkpt>
        <trkpt lat="28.5235805" lon="105.148455"><ele>421.97</ele><time>2026-04-11T22:32:04.000Z</time></trkpt>
        <trkpt lat="28.5235966" lon="105.1483466"><ele>421.48</ele><time>2026-04-11T22:32:14.000Z</time></trkpt>
        <trkpt lat="28.5236498" lon="105.1482441"><ele>419.93</ele><time>2026-04-11T22:32:40.000Z</time></trkpt>
        <trkpt lat="28.5237009" lon="105.1481339"><ele>418.62</ele><time>2026-04-11T22:32:50.000Z</time></trkpt>
        <trkpt lat="28.5237344" lon="105.1480153"><ele>417.7</ele><time>2026-04-11T22:33:06.000Z</time></trkpt>
        <trkpt lat="28.5238087" lon="105.1479274"><ele>418.33</ele><time>2026-04-11T22:33:14.000Z</time></trkpt>
        <trkpt lat="28.5238723" lon="105.1478319"><ele>420.53</ele><time>2026-04-11T22:33:22.000Z</time></trkpt>
        <trkpt lat="28.523951" lon="105.147766"><ele>422.4</ele><time>2026-04-11T22:33:32.000Z</time></trkpt>
        <trkpt lat="28.5240223" lon="105.1476812"><ele>423.16</ele><time>2026-04-11T22:33:42.000Z</time></trkpt>
        <trkpt lat="28.5240602" lon="105.1475659"><ele>424.83</ele><time>2026-04-11T22:33:54.000Z</time></trkpt>
        <trkpt lat="28.5241229" lon="105.1474798"><ele>427.09</ele><time>2026-04-11T22:34:08.000Z</time></trkpt>
        <trkpt lat="28.5241607" lon="105.1473794"><ele>428.09</ele><time>2026-04-11T22:34:20.000Z</time></trkpt>
        <trkpt lat="28.5242064" lon="105.1472799"><ele>429.12</ele><time>2026-04-11T22:34:36.000Z</time></trkpt>
        <trkpt lat="28.5242699" lon="105.1471919"><ele>430.56</ele><time>2026-04-11T22:34:48.000Z</time></trkpt>
        <trkpt lat="28.5243041" lon="105.1470931"><ele>430.7</ele><time>2026-04-11T22:34:56.000Z</time></trkpt>
        <trkpt lat="28.524366" lon="105.1470061"><ele>430.37</ele><time>2026-04-11T22:35:04.000Z</time></trkpt>
        <trkpt lat="28.5244349" lon="105.1469149"><ele>432.22</ele><time>2026-04-11T22:35:14.000Z</time></trkpt>
        <trkpt lat="28.5245091" lon="105.1468242"><ele>432.23</ele><time>2026-04-11T22:35:24.000Z</time></trkpt>
        <trkpt lat="28.5245691" lon="105.1467244"><ele>434.45</ele><time>2026-04-11T22:35:36.000Z</time></trkpt>
        <trkpt lat="28.5246093" lon="105.1466163"><ele>438.5</ele><time>2026-04-11T22:35:46.000Z</time></trkpt>
        <trkpt lat="28.5246188" lon="105.1466057"><ele>441.43</ele><time>2026-04-11T22:35:48.000Z</time></trkpt>
        <trkpt lat="28.5246037" lon="105.1465167"><ele>443.59</ele><time>2026-04-11T22:36:00.000Z</time></trkpt>
        <trkpt lat="28.524532" lon="105.1464404"><ele>446.95</ele><time>2026-04-11T22:36:08.000Z</time></trkpt>
        <trkpt lat="28.5244353" lon="105.1464168"><ele>450.87</ele><time>2026-04-11T22:36:20.000Z</time></trkpt>
        <trkpt lat="28.524363" lon="105.1463525"><ele>454.12</ele><time>2026-04-11T22:36:42.000Z</time></trkpt>
        <trkpt lat="28.5243472" lon="105.1462883"><ele>455.95</ele><time>2026-04-11T22:37:08.000Z</time></trkpt>
        <trkpt lat="28.5243704" lon="105.1461978"><ele>453.27</ele><time>2026-04-11T22:37:32.000Z</time></trkpt>
        <trkpt lat="28.5243736" lon="105.1460809"><ele>453.88</ele><time>2026-04-11T22:38:00.000Z</time></trkpt>
        <trkpt lat="28.5243823" lon="105.1459676"><ele>456.43</ele><time>2026-04-11T22:38:18.000Z</time></trkpt>
        <trkpt lat="28.5243488" lon="105.1458633"><ele>459.03</ele><time>2026-04-11T22:38:32.000Z</time></trkpt>
        <trkpt lat="28.5243322" lon="105.1457554"><ele>462.32</ele><time>2026-04-11T22:38:44.000Z</time></trkpt>
        <trkpt lat="28.5242921" lon="105.1456605"><ele>463.8</ele><time>2026-04-11T22:38:52.000Z</time></trkpt>
        <trkpt lat="28.5242114" lon="105.1456071"><ele>464.5</ele><time>2026-04-11T22:39:00.000Z</time></trkpt>
        <trkpt lat="28.5241137" lon="105.145561"><ele>466.11</ele><time>2026-04-11T22:39:12.000Z</time></trkpt>
        <trkpt lat="28.5240655" lon="105.1454974"><ele>466.5</ele><time>2026-04-11T22:39:28.000Z</time></trkpt>
        <trkpt lat="28.5240201" lon="105.1454133"><ele>465.15</ele><time>2026-04-11T22:39:50.000Z</time></trkpt>
        <trkpt lat="28.5239834" lon="105.1453185"><ele>466.31</ele><time>2026-04-11T22:40:06.000Z</time></trkpt>
        <trkpt lat="28.5239468" lon="105.1452218"><ele>470.16</ele><time>2026-04-11T22:40:40.000Z</time></trkpt>
        <trkpt lat="28.5239254" lon="105.1451162"><ele>473.59</ele><time>2026-04-11T22:40:56.000Z</time></trkpt>
        <trkpt lat="28.5238643" lon="105.1450467"><ele>476.23</ele><time>2026-04-11T22:41:08.000Z</time></trkpt>
        <trkpt lat="28.5237701" lon="105.1450537"><ele>479.02</ele><time>2026-04-11T22:41:56.000Z</time></trkpt>
        <trkpt lat="28.523679" lon="105.1451227"><ele>480.73</ele><time>2026-04-11T22:42:08.000Z</time></trkpt>
        <trkpt lat="28.5235848" lon="105.1451855"><ele>483.91</ele><time>2026-04-11T22:42:24.000Z</time></trkpt>
        <trkpt lat="28.5235428" lon="105.1453083"><ele>487.18</ele><time>2026-04-11T22:45:47.000Z</time></trkpt>
        <trkpt lat="28.5233916" lon="105.1454738"><ele>490.57</ele><time>2026-04-11T22:46:21.000Z</time></trkpt>
        <trkpt lat="28.5232912" lon="105.1454992"><ele>489.94</ele><time>2026-04-11T22:46:48.000Z</time></trkpt>
        <trkpt lat="28.5232419" lon="105.1454227"><ele>494.98</ele><time>2026-04-11T22:47:12.000Z</time></trkpt>
        <trkpt lat="28.5231988" lon="105.1453246"><ele>500.74</ele><time>2026-04-11T22:47:26.000Z</time></trkpt>
        <trkpt lat="28.5231217" lon="105.145265"><ele>505.64</ele><time>2026-04-11T22:47:40.000Z</time></trkpt>
        <trkpt lat="28.5231368" lon="105.1451752"><ele>510.53</ele><time>2026-04-11T22:48:28.000Z</time></trkpt>
        <trkpt lat="28.5231966" lon="105.1452115"><ele>514.02</ele><time>2026-04-11T22:49:06.000Z</time></trkpt>
        <trkpt lat="28.5232577" lon="105.1453039"><ele>515.25</ele><time>2026-04-11T22:49:18.000Z</time></trkpt>
        <trkpt lat="28.5233465" lon="105.1453497"><ele>515.68</ele><time>2026-04-11T22:49:32.000Z</time></trkpt>
        <trkpt lat="28.5234233" lon="105.1453013"><ele>515.76</ele><time>2026-04-11T22:49:42.000Z</time></trkpt>
        <trkpt lat="28.5234653" lon="105.1452034"><ele>513.78</ele><time>2026-04-11T22:49:54.000Z</time></trkpt>
        <trkpt lat="28.5235477" lon="105.1451359"><ele>510.57</ele><time>2026-04-11T22:50:02.000Z</time></trkpt>
        <trkpt lat="28.5235984" lon="105.1450728"><ele>509.21</ele><time>2026-04-11T22:50:10.000Z</time></trkpt>
        <trkpt lat="28.5236813" lon="105.1450386"><ele>508.27</ele><time>2026-04-11T22:50:34.000Z</time></trkpt>
        <trkpt lat="28.5237544" lon="105.1449543"><ele>507.65</ele><time>2026-04-11T22:50:52.000Z</time></trkpt>
        <trkpt lat="28.5237844" lon="105.1448386"><ele>506.54</ele><time>2026-04-11T22:51:08.000Z</time></trkpt>
        <trkpt lat="28.5238117" lon="105.1448068"><ele>499.67</ele><time>2026-04-11T22:51:12.000Z</time></trkpt>
        <trkpt lat="28.5238718" lon="105.1448818"><ele>495.11</ele><time>2026-04-11T22:51:32.000Z</time></trkpt>
        <trkpt lat="28.5238925" lon="105.1449943"><ele>498.18</ele><time>2026-04-11T22:51:58.000Z</time></trkpt>
        <trkpt lat="28.5238499" lon="105.144973"><ele>501.8</ele><time>2026-04-11T22:52:04.000Z</time></trkpt>
        <trkpt lat="28.523841" lon="105.1450359"><ele>502.58</ele><time>2026-04-11T22:52:34.000Z</time></trkpt>
        <trkpt lat="28.5238331" lon="105.1450594"><ele>504.08</ele><time>2026-04-11T22:52:36.000Z</time></trkpt>
        <trkpt lat="28.5237995" lon="105.1449811"><ele>504.92</ele><time>2026-04-11T22:52:48.000Z</time></trkpt>
        <trkpt lat="28.5237902" lon="105.1449636"><ele>503.99</ele><time>2026-04-11T22:52:50.000Z</time></trkpt>
        <trkpt lat="28.5236013" lon="105.1448515"><ele>503.21</ele><time>2026-04-11T22:53:32.000Z</time></trkpt>
        <trkpt lat="28.5236409" lon="105.1449269"><ele>504.56</ele><time>2026-04-11T22:53:38.000Z</time></trkpt>
        <trkpt lat="28.5236761" lon="105.144965"><ele>501.68</ele><time>2026-04-11T22:53:40.000Z</time></trkpt>
        <trkpt lat="28.5236197" lon="105.1449877"><ele>500.01</ele><time>2026-04-11T22:54:12.000Z</time></trkpt>
        <trkpt lat="28.5235517" lon="105.1450525"><ele>500.28</ele><time>2026-04-11T22:54:24.000Z</time></trkpt>
        <trkpt lat="28.5234795" lon="105.1451424"><ele>501.98</ele><time>2026-04-11T22:54:36.000Z</time></trkpt>
        <trkpt lat="28.5234156" lon="105.1452385"><ele>503.07</ele><time>2026-04-11T22:54:50.000Z</time></trkpt>
        <trkpt lat="28.5233477" lon="105.1453238"><ele>503.47</ele><time>2026-04-11T22:55:14.000Z</time></trkpt>
        <trkpt lat="28.5232622" lon="105.1453368"><ele>505.27</ele><time>2026-04-11T22:55:28.000Z</time></trkpt>
        <trkpt lat="28.5232299" lon="105.145251"><ele>508.66</ele><time>2026-04-11T22:56:14.000Z</time></trkpt>
        <trkpt lat="28.5231708" lon="105.145156"><ele>512.59</ele><time>2026-04-11T22:56:52.000Z</time></trkpt>
        <trkpt lat="28.5230949" lon="105.1450796"><ele>516.94</ele><time>2026-04-11T22:57:46.000Z</time></trkpt>
        <trkpt lat="28.5230041" lon="105.1450426"><ele>521.74</ele><time>2026-04-11T22:58:04.000Z</time></trkpt>
        <trkpt lat="28.5229821" lon="105.144957"><ele>526.78</ele><time>2026-04-11T22:58:22.000Z</time></trkpt>
        <trkpt lat="28.5229669" lon="105.1449129"><ele>528.63</ele><time>2026-04-11T22:58:28.000Z</time></trkpt>
        <trkpt lat="28.5230375" lon="105.1448581"><ele>529.93</ele><time>2026-04-11T22:59:00.000Z</time></trkpt>
        <trkpt lat="28.5230865" lon="105.1448179"><ele>532.66</ele><time>2026-04-11T22:59:10.000Z</time></trkpt>
        <trkpt lat="28.5231569" lon="105.1447538"><ele>534.23</ele><time>2026-04-11T22:59:36.000Z</time></trkpt>
        <trkpt lat="28.523246" lon="105.1447104"><ele>539.5</ele><time>2026-04-11T22:59:58.000Z</time></trkpt>
        <trkpt lat="28.5232754" lon="105.1446982"><ele>545.77</ele><time>2026-04-11T23:00:00.000Z</time></trkpt>
        <trkpt lat="28.5232641" lon="105.1446219"><ele>550.61</ele><time>2026-04-11T23:00:38.000Z</time></trkpt>
        <trkpt lat="28.5231978" lon="105.1445392"><ele>553.71</ele><time>2026-04-11T23:01:14.000Z</time></trkpt>
        <trkpt lat="28.5231573" lon="105.1444385"><ele>555.81</ele><time>2026-04-11T23:01:40.000Z</time></trkpt>
        <trkpt lat="28.5231786" lon="105.144324"><ele>560.27</ele><time>2026-04-11T23:02:04.000Z</time></trkpt>
        <trkpt lat="28.5232389" lon="105.1442323"><ele>560.43</ele><time>2026-04-11T23:02:20.000Z</time></trkpt>
        <trkpt lat="28.5232838" lon="105.14413"><ele>561.14</ele><time>2026-04-11T23:02:38.000Z</time></trkpt>
        <trkpt lat="28.5233172" lon="105.1440274"><ele>564.31</ele><time>2026-04-11T23:03:08.000Z</time></trkpt>
        <trkpt lat="28.523272" lon="105.143946"><ele>568.04</ele><time>2026-04-11T23:03:26.000Z</time></trkpt>
        <trkpt lat="28.5232797" lon="105.1438566"><ele>572.94</ele><time>2026-04-11T23:03:42.000Z</time></trkpt>
        <trkpt lat="28.5232445" lon="105.143743"><ele>576.01</ele><time>2026-04-11T23:06:36.000Z</time></trkpt>
        <trkpt lat="28.5232598" lon="105.1436712"><ele>579.63</ele><time>2026-04-11T23:06:42.000Z</time></trkpt>
        <trkpt lat="28.5232015" lon="105.1435804"><ele>582.06</ele><time>2026-04-11T23:07:04.000Z</time></trkpt>
        <trkpt lat="28.5231865" lon="105.1434789"><ele>584.21</ele><time>2026-04-11T23:07:46.000Z</time></trkpt>
        <trkpt lat="28.5231111" lon="105.1434375"><ele>585.72</ele><time>2026-04-11T23:08:18.000Z</time></trkpt>
        <trkpt lat="28.5230526" lon="105.1433626"><ele>589.25</ele><time>2026-04-11T23:08:34.000Z</time></trkpt>
        <trkpt lat="28.5229621" lon="105.1433366"><ele>592.32</ele><time>2026-04-11T23:08:44.000Z</time></trkpt>
        <trkpt lat="28.5228774" lon="105.1432859"><ele>594.52</ele><time>2026-04-11T23:08:54.000Z</time></trkpt>
        <trkpt lat="28.5228712" lon="105.1432852"><ele>596.04</ele><time>2026-04-11T23:08:58.000Z</time></trkpt>
        <trkpt lat="28.5228733" lon="105.1432023"><ele>595.91</ele><time>2026-04-11T23:09:46.000Z</time></trkpt>
        <trkpt lat="28.5229504" lon="105.1431983"><ele>591.37</ele><time>2026-04-11T23:09:56.000Z</time></trkpt>
        <trkpt lat="28.5230462" lon="105.1432626"><ele>588.73</ele><time>2026-04-11T23:10:04.000Z</time></trkpt>
        <trkpt lat="28.5231194" lon="105.1433527"><ele>587.56</ele><time>2026-04-11T23:10:14.000Z</time></trkpt>
        <trkpt lat="28.5230737" lon="105.1433395"><ele>589.33</ele><time>2026-04-11T23:10:28.000Z</time></trkpt>
        <trkpt lat="28.5229919" lon="105.1432823"><ele>592.88</ele><time>2026-04-11T23:10:36.000Z</time></trkpt>
        <trkpt lat="28.5229615" lon="105.1432241"><ele>595.78</ele><time>2026-04-11T23:10:52.000Z</time></trkpt>
        <trkpt lat="28.5229849" lon="105.1432794"><ele>596.87</ele><time>2026-04-11T23:11:14.000Z</time></trkpt>
        <trkpt lat="28.5230632" lon="105.1433399"><ele>596.36</ele><time>2026-04-11T23:11:28.000Z</time></trkpt>
        <trkpt lat="28.5230641" lon="105.1432322"><ele>595.42</ele><time>2026-04-11T23:15:16.000Z</time></trkpt>
        <trkpt lat="28.5229576" lon="105.1431456"><ele>597.93</ele><time>2026-04-11T23:15:54.000Z</time></trkpt>
        <trkpt lat="28.5228606" lon="105.1431641"><ele>597.28</ele><time>2026-04-11T23:16:14.000Z</time></trkpt>
        <trkpt lat="28.5227648" lon="105.1431933"><ele>596.57</ele><time>2026-04-11T23:16:30.000Z</time></trkpt>
        <trkpt lat="28.5226822" lon="105.1431545"><ele>595.41</ele><time>2026-04-11T23:16:40.000Z</time></trkpt>
        <trkpt lat="28.5225953" lon="105.1430996"><ele>594.75</ele><time>2026-04-11T23:17:00.000Z</time></trkpt>
        <trkpt lat="28.5225148" lon="105.1430706"><ele>595.29</ele><time>2026-04-11T23:17:08.000Z</time></trkpt>
        <trkpt lat="28.5224334" lon="105.1430229"><ele>596.84</ele><time>2026-04-11T23:17:30.000Z</time></trkpt>
        <trkpt lat="28.5224043" lon="105.1430945"><ele>598.03</ele><time>2026-04-11T23:17:46.000Z</time></trkpt>
        <trkpt lat="28.5223679" lon="105.1432001"><ele>599.3</ele><time>2026-04-11T23:18:04.000Z</time></trkpt>
        <trkpt lat="28.522391" lon="105.1433075"><ele>599.84</ele><time>2026-04-11T23:18:26.000Z</time></trkpt>
        <trkpt lat="28.522423" lon="105.1434199"><ele>598.23</ele><time>2026-04-11T23:18:58.000Z</time></trkpt>
        <trkpt lat="28.5224217" lon="105.1435377"><ele>597.71</ele><time>2026-04-11T23:19:12.000Z</time></trkpt>
        <trkpt lat="28.5223586" lon="105.1436192"><ele>596.65</ele><time>2026-04-11T23:19:26.000Z</time></trkpt>
        <trkpt lat="28.522266" lon="105.1436551"><ele>596.32</ele><time>2026-04-11T23:19:36.000Z</time></trkpt>
        <trkpt lat="28.5221561" lon="105.1436547"><ele>596.43</ele><time>2026-04-11T23:20:06.000Z</time></trkpt>
        <trkpt lat="28.5220618" lon="105.1436957"><ele>596.12</ele><time>2026-04-11T23:20:16.000Z</time></trkpt>
        <trkpt lat="28.5220016" lon="105.1437819"><ele>597.11</ele><time>2026-04-11T23:20:26.000Z</time></trkpt>
        <trkpt lat="28.5219242" lon="105.1438644"><ele>597.35</ele><time>2026-04-11T23:20:46.000Z</time></trkpt>
        <trkpt lat="28.5218886" lon="105.1439259"><ele>597.4</ele><time>2026-04-11T23:20:56.000Z</time></trkpt>
        <trkpt lat="28.5218516" lon="105.1438628"><ele>597.92</ele><time>2026-04-11T23:21:32.000Z</time></trkpt>
        <trkpt lat="28.5218144" lon="105.1437773"><ele>599.02</ele><time>2026-04-11T23:21:44.000Z</time></trkpt>
        <trkpt lat="28.5218043" lon="105.143664"><ele>600.76</ele><time>2026-04-11T23:21:58.000Z</time></trkpt>
        <trkpt lat="28.5217237" lon="105.143591"><ele>599.89</ele><time>2026-04-11T23:22:06.000Z</time></trkpt>
        <trkpt lat="28.5216242" lon="105.1435369"><ele>601.63</ele><time>2026-04-11T23:22:14.000Z</time></trkpt>
        <trkpt lat="28.521534" lon="105.143477"><ele>602.48</ele><time>2026-04-11T23:22:22.000Z</time></trkpt>
        <trkpt lat="28.5214377" lon="105.143472"><ele>601.83</ele><time>2026-04-11T23:22:30.000Z</time></trkpt>
        <trkpt lat="28.5213392" lon="105.1434448"><ele>601.79</ele><time>2026-04-11T23:22:40.000Z</time></trkpt>
        <trkpt lat="28.5212931" lon="105.1433935"><ele>601.44</ele><time>2026-04-11T23:22:48.000Z</time></trkpt>
        <trkpt lat="28.5213018" lon="105.1432909"><ele>599.35</ele><time>2026-04-11T23:23:06.000Z</time></trkpt>
        <trkpt lat="28.5213737" lon="105.1432"><ele>597.35</ele><time>2026-04-11T23:23:20.000Z</time></trkpt>
        <trkpt lat="28.5214462" lon="105.1431064"><ele>595.77</ele><time>2026-04-11T23:23:28.000Z</time></trkpt>
        <trkpt lat="28.5214842" lon="105.1430026"><ele>594.5</ele><time>2026-04-11T23:23:34.000Z</time></trkpt>
        <trkpt lat="28.5214518" lon="105.142904"><ele>596.85</ele><time>2026-04-11T23:23:46.000Z</time></trkpt>
        <trkpt lat="28.5213752" lon="105.1428276"><ele>600.15</ele><time>2026-04-11T23:24:06.000Z</time></trkpt>
        <trkpt lat="28.5213432" lon="105.1427338"><ele>601.01</ele><time>2026-04-11T23:24:26.000Z</time></trkpt>
        <trkpt lat="28.5212598" lon="105.1426861"><ele>599.83</ele><time>2026-04-11T23:24:36.000Z</time></trkpt>
        <trkpt lat="28.5211576" lon="105.1426787"><ele>599.2</ele><time>2026-04-11T23:24:52.000Z</time></trkpt>
        <trkpt lat="28.5210556" lon="105.1427289"><ele>598.31</ele><time>2026-04-11T23:25:04.000Z</time></trkpt>
        <trkpt lat="28.5209514" lon="105.142767"><ele>599.07</ele><time>2026-04-11T23:25:16.000Z</time></trkpt>
        <trkpt lat="28.5208468" lon="105.142801"><ele>600.18</ele><time>2026-04-11T23:25:36.000Z</time></trkpt>
        <trkpt lat="28.5207579" lon="105.1428469"><ele>601.31</ele><time>2026-04-11T23:25:44.000Z</time></trkpt>
        <trkpt lat="28.5206835" lon="105.1429165"><ele>601.83</ele><time>2026-04-11T23:25:54.000Z</time></trkpt>
        <trkpt lat="28.5206815" lon="105.1429505"><ele>601.48</ele><time>2026-04-11T23:26:02.000Z</time></trkpt>
        <trkpt lat="28.5207088" lon="105.1430611"><ele>600.47</ele><time>2026-04-11T23:28:10.000Z</time></trkpt>
        <trkpt lat="28.5207392" lon="105.1431675"><ele>598.11</ele><time>2026-04-11T23:28:20.000Z</time></trkpt>
        <trkpt lat="28.5207615" lon="105.143282"><ele>596.22</ele><time>2026-04-11T23:28:32.000Z</time></trkpt>
        <trkpt lat="28.5207771" lon="105.1433926"><ele>595.29</ele><time>2026-04-11T23:28:46.000Z</time></trkpt>
        <trkpt lat="28.5207207" lon="105.1434782"><ele>595.31</ele><time>2026-04-11T23:29:04.000Z</time></trkpt>
        <trkpt lat="28.520702" lon="105.1435029"><ele>597.37</ele><time>2026-04-11T23:29:08.000Z</time></trkpt>
        <trkpt lat="28.5206224" lon="105.1435328"><ele>598.72</ele><time>2026-04-11T23:29:24.000Z</time></trkpt>
        <trkpt lat="28.5205247" lon="105.1435539"><ele>600.98</ele><time>2026-04-11T23:29:36.000Z</time></trkpt>
        <trkpt lat="28.5204224" lon="105.1435361"><ele>602.78</ele><time>2026-04-11T23:29:46.000Z</time></trkpt>
        <trkpt lat="28.5203166" lon="105.1435187"><ele>603.82</ele><time>2026-04-11T23:29:56.000Z</time></trkpt>
        <trkpt lat="28.5202194" lon="105.1435051"><ele>604.66</ele><time>2026-04-11T23:30:04.000Z</time></trkpt>
        <trkpt lat="28.520158" lon="105.143511"><ele>603.9</ele><time>2026-04-11T23:30:12.000Z</time></trkpt>
        <trkpt lat="28.5200655" lon="105.143517"><ele>602.84</ele><time>2026-04-11T23:30:30.000Z</time></trkpt>
        <trkpt lat="28.5199701" lon="105.1435527"><ele>601.75</ele><time>2026-04-11T23:30:40.000Z</time></trkpt>
        <trkpt lat="28.5199041" lon="105.1435646"><ele>601.82</ele><time>2026-04-11T23:30:48.000Z</time></trkpt>
        <trkpt lat="28.519825" lon="105.1435296"><ele>602.14</ele><time>2026-04-11T23:30:58.000Z</time></trkpt>
        <trkpt lat="28.5197567" lon="105.1434873"><ele>603.17</ele><time>2026-04-11T23:31:06.000Z</time></trkpt>
        <trkpt lat="28.5197074" lon="105.1434022"><ele>604.37</ele><time>2026-04-11T23:31:18.000Z</time></trkpt>
        <trkpt lat="28.5196726" lon="105.1432982"><ele>607.29</ele><time>2026-04-11T23:31:28.000Z</time></trkpt>
        <trkpt lat="28.5196151" lon="105.1432168"><ele>609.05</ele><time>2026-04-11T23:32:22.000Z</time></trkpt>
        <trkpt lat="28.5195262" lon="105.1431551"><ele>607.59</ele><time>2026-04-11T23:32:34.000Z</time></trkpt>
        <trkpt lat="28.5194614" lon="105.1430752"><ele>605.77</ele><time>2026-04-11T23:32:44.000Z</time></trkpt>
        <trkpt lat="28.519501" lon="105.1429837"><ele>603.55</ele><time>2026-04-11T23:32:56.000Z</time></trkpt>
        <trkpt lat="28.5195549" lon="105.1428756"><ele>604.42</ele><time>2026-04-11T23:33:08.000Z</time></trkpt>
        <trkpt lat="28.5196147" lon="105.1427698"><ele>606.22</ele><time>2026-04-11T23:33:20.000Z</time></trkpt>
        <trkpt lat="28.5196659" lon="105.1426737"><ele>606.03</ele><time>2026-04-11T23:33:32.000Z</time></trkpt>
        <trkpt lat="28.5197188" lon="105.1425699"><ele>604.64</ele><time>2026-04-11T23:33:42.000Z</time></trkpt>
        <trkpt lat="28.5197796" lon="105.1425063"><ele>602.58</ele><time>2026-04-11T23:33:54.000Z</time></trkpt>
        <trkpt lat="28.5198615" lon="105.1424427"><ele>601.66</ele><time>2026-04-11T23:34:10.000Z</time></trkpt>
        <trkpt lat="28.5199484" lon="105.1423798"><ele>603.11</ele><time>2026-04-11T23:34:22.000Z</time></trkpt>
        <trkpt lat="28.520026" lon="105.1423002"><ele>602.82</ele><time>2026-04-11T23:34:34.000Z</time></trkpt>
        <trkpt lat="28.5201087" lon="105.1422453"><ele>602.72</ele><time>2026-04-11T23:34:44.000Z</time></trkpt>
        <trkpt lat="28.5202006" lon="105.1422552"><ele>605.13</ele><time>2026-04-11T23:34:56.000Z</time></trkpt>
        <trkpt lat="28.5202722" lon="105.1422096"><ele>606.34</ele><time>2026-04-11T23:35:08.000Z</time></trkpt>
        <trkpt lat="28.520294" lon="105.1421095"><ele>608.98</ele><time>2026-04-11T23:35:18.000Z</time></trkpt>
        <trkpt lat="28.5202939" lon="105.1419952"><ele>611.15</ele><time>2026-04-11T23:35:34.000Z</time></trkpt>
        <trkpt lat="28.5202714" lon="105.1418744"><ele>613.07</ele><time>2026-04-11T23:35:42.000Z</time></trkpt>
        <trkpt lat="28.5202234" lon="105.1417615"><ele>614.32</ele><time>2026-04-11T23:35:50.000Z</time></trkpt>
        <trkpt lat="28.5201888" lon="105.1416397"><ele>614.75</ele><time>2026-04-11T23:36:00.000Z</time></trkpt>
        <trkpt lat="28.5201868" lon="105.1415296"><ele>615.21</ele><time>2026-04-11T23:36:08.000Z</time></trkpt>
        <trkpt lat="28.5201736" lon="105.141428"><ele>614.68</ele><time>2026-04-11T23:36:16.000Z</time></trkpt>
        <trkpt lat="28.520143" lon="105.1413331"><ele>614.72</ele><time>2026-04-11T23:36:26.000Z</time></trkpt>
        <trkpt lat="28.5201473" lon="105.1412342"><ele>612.88</ele><time>2026-04-11T23:36:40.000Z</time></trkpt>
        <trkpt lat="28.5201443" lon="105.141192"><ele>610.42</ele><time>2026-04-11T23:36:46.000Z</time></trkpt>
        <trkpt lat="28.5201932" lon="105.1412415"><ele>610</ele><time>2026-04-11T23:37:08.000Z</time></trkpt>
        <trkpt lat="28.5202424" lon="105.1413407"><ele>610.23</ele><time>2026-04-11T23:37:24.000Z</time></trkpt>
        <trkpt lat="28.5202814" lon="105.1414143"><ele>611.51</ele><time>2026-04-11T23:37:32.000Z</time></trkpt>
        <trkpt lat="28.5202495" lon="105.1413762"><ele>614</ele><time>2026-04-11T23:37:48.000Z</time></trkpt>
        <trkpt lat="28.5202278" lon="105.1412629"><ele>614.62</ele><time>2026-04-11T23:37:58.000Z</time></trkpt>
        <trkpt lat="28.5201663" lon="105.1411649"><ele>614.04</ele><time>2026-04-11T23:38:08.000Z</time></trkpt>
        <trkpt lat="28.5202126" lon="105.1411149"><ele>612.87</ele><time>2026-04-11T23:38:24.000Z</time></trkpt>
        <trkpt lat="28.5202901" lon="105.1411557"><ele>610.51</ele><time>2026-04-11T23:38:34.000Z</time></trkpt>
        <trkpt lat="28.5203881" lon="105.1411565"><ele>607.95</ele><time>2026-04-11T23:38:42.000Z</time></trkpt>
        <trkpt lat="28.5204958" lon="105.1411588"><ele>605.59</ele><time>2026-04-11T23:38:52.000Z</time></trkpt>
        <trkpt lat="28.5205849" lon="105.141212"><ele>603.62</ele><time>2026-04-11T23:39:02.000Z</time></trkpt>
        <trkpt lat="28.5206615" lon="105.1412812"><ele>601.31</ele><time>2026-04-11T23:39:10.000Z</time></trkpt>
        <trkpt lat="28.5207318" lon="105.1413587"><ele>598.18</ele><time>2026-04-11T23:39:18.000Z</time></trkpt>
        <trkpt lat="28.5207811" lon="105.141397"><ele>596.81</ele><time>2026-04-11T23:39:24.000Z</time></trkpt>
        <trkpt lat="28.5208213" lon="105.1412962"><ele>596.75</ele><time>2026-04-11T23:40:26.000Z</time></trkpt>
        <trkpt lat="28.520902" lon="105.1412398"><ele>595.55</ele><time>2026-04-11T23:40:34.000Z</time></trkpt>
        <trkpt lat="28.5209459" lon="105.1412087"><ele>596.1</ele><time>2026-04-11T23:40:40.000Z</time></trkpt>
        <trkpt lat="28.5210187" lon="105.1411594"><ele>598.05</ele><time>2026-04-11T23:40:54.000Z</time></trkpt>
        <trkpt lat="28.5210893" lon="105.1410863"><ele>597.74</ele><time>2026-04-11T23:41:04.000Z</time></trkpt>
        <trkpt lat="28.5211709" lon="105.1410341"><ele>596.28</ele><time>2026-04-11T23:41:16.000Z</time></trkpt>
        <trkpt lat="28.521203" lon="105.141031"><ele>594.77</ele><time>2026-04-11T23:41:19.000Z</time></trkpt>
        <trkpt lat="28.5212769" lon="105.1410261"><ele>593.5</ele><time>2026-04-11T23:41:35.000Z</time></trkpt>
        <trkpt lat="28.5213363" lon="105.1410927"><ele>593.2</ele><time>2026-04-11T23:41:59.000Z</time></trkpt>
        <trkpt lat="28.5214" lon="105.1411744"><ele>593.07</ele><time>2026-04-11T23:42:31.000Z</time></trkpt>
        <trkpt lat="28.521502" lon="105.1412297"><ele>592.98</ele><time>2026-04-11T23:42:47.000Z</time></trkpt>
        <trkpt lat="28.521568" lon="105.1411628"><ele>592.46</ele><time>2026-04-11T23:42:58.000Z</time></trkpt>
        <trkpt lat="28.5215676" lon="105.1411392"><ele>593.25</ele><time>2026-04-11T23:43:00.000Z</time></trkpt>
        <trkpt lat="28.5215671" lon="105.1410443"><ele>593.52</ele><time>2026-04-11T23:43:13.000Z</time></trkpt>
        <trkpt lat="28.5216097" lon="105.1409363"><ele>595.31</ele><time>2026-04-11T23:43:21.000Z</time></trkpt>
        <trkpt lat="28.5216008" lon="105.1408105"><ele>595.36</ele><time>2026-04-11T23:43:33.000Z</time></trkpt>
        <trkpt lat="28.5215234" lon="105.1407345"><ele>594.08</ele><time>2026-04-11T23:43:43.000Z</time></trkpt>
        <trkpt lat="28.5214113" lon="105.1407321"><ele>593.93</ele><time>2026-04-11T23:43:53.000Z</time></trkpt>
        <trkpt lat="28.521306" lon="105.1407562"><ele>593.34</ele><time>2026-04-11T23:44:05.000Z</time></trkpt>
        <trkpt lat="28.5212109" lon="105.1408224"><ele>592.89</ele><time>2026-04-11T23:44:15.000Z</time></trkpt>
        <trkpt lat="28.52113" lon="105.1408963"><ele>592.26</ele><time>2026-04-11T23:44:25.000Z</time></trkpt>
        <trkpt lat="28.5210531" lon="105.1409618"><ele>590.55</ele><time>2026-04-11T23:44:33.000Z</time></trkpt>
        <trkpt lat="28.5209795" lon="105.1410366"><ele>589.88</ele><time>2026-04-11T23:44:43.000Z</time></trkpt>
        <trkpt lat="28.520908" lon="105.1411118"><ele>589.58</ele><time>2026-04-11T23:44:53.000Z</time></trkpt>
        <trkpt lat="28.5208095" lon="105.1411207"><ele>589.81</ele><time>2026-04-11T23:45:03.000Z</time></trkpt>
        <trkpt lat="28.5207183" lon="105.141087"><ele>589.78</ele><time>2026-04-11T23:45:13.000Z</time></trkpt>
        <trkpt lat="28.5206268" lon="105.1410304"><ele>589.68</ele><time>2026-04-11T23:45:25.000Z</time></trkpt>
        <trkpt lat="28.5205308" lon="105.1410137"><ele>589.2</ele><time>2026-04-11T23:45:35.000Z</time></trkpt>
        <trkpt lat="28.5204487" lon="105.1409576"><ele>587.48</ele><time>2026-04-11T23:45:43.000Z</time></trkpt>
        <trkpt lat="28.5204151" lon="105.1408568"><ele>585.48</ele><time>2026-04-11T23:45:51.000Z</time></trkpt>
        <trkpt lat="28.5204424" lon="105.1407673"><ele>585.08</ele><time>2026-04-11T23:45:59.000Z</time></trkpt>
        <trkpt lat="28.5204879" lon="105.1406588"><ele>584.64</ele><time>2026-04-11T23:46:13.000Z</time></trkpt>
        <trkpt lat="28.5205316" lon="105.1405494"><ele>583.18</ele><time>2026-04-11T23:46:25.000Z</time></trkpt>
        <trkpt lat="28.520574" lon="105.1404491"><ele>583.22</ele><time>2026-04-11T23:46:33.000Z</time></trkpt>
        <trkpt lat="28.5205903" lon="105.1403333"><ele>584.5</ele><time>2026-04-11T23:46:41.000Z</time></trkpt>
        <trkpt lat="28.5205716" lon="105.1402131"><ele>586.27</ele><time>2026-04-11T23:46:51.000Z</time></trkpt>
        <trkpt lat="28.5204956" lon="105.1401662"><ele>588.61</ele><time>2026-04-11T23:46:59.000Z</time></trkpt>
        <trkpt lat="28.5204132" lon="105.1402123"><ele>590.7</ele><time>2026-04-11T23:47:07.000Z</time></trkpt>
        <trkpt lat="28.520349" lon="105.1403044"><ele>592.62</ele><time>2026-04-11T23:47:19.000Z</time></trkpt>
        <trkpt lat="28.5202723" lon="105.1403022"><ele>591.72</ele><time>2026-04-11T23:47:25.000Z</time></trkpt>
        <trkpt lat="28.5202112" lon="105.1402235"><ele>591.75</ele><time>2026-04-11T23:47:33.000Z</time></trkpt>
        <trkpt lat="28.5201576" lon="105.1401169"><ele>593.43</ele><time>2026-04-11T23:47:41.000Z</time></trkpt>
        <trkpt lat="28.5201348" lon="105.1400533"><ele>596.15</ele><time>2026-04-11T23:47:45.000Z</time></trkpt>
        <trkpt lat="28.520098" lon="105.1399573"><ele>598.23</ele><time>2026-04-11T23:47:59.000Z</time></trkpt>
        <trkpt lat="28.520043" lon="105.1398566"><ele>597.93</ele><time>2026-04-11T23:48:09.000Z</time></trkpt>
        <trkpt lat="28.5199693" lon="105.1397809"><ele>597.21</ele><time>2026-04-11T23:48:19.000Z</time></trkpt>
        <trkpt lat="28.5198981" lon="105.1396833"><ele>596.55</ele><time>2026-04-11T23:48:29.000Z</time></trkpt>
        <trkpt lat="28.5198282" lon="105.1395939"><ele>594.72</ele><time>2026-04-11T23:48:37.000Z</time></trkpt>
        <trkpt lat="28.519751" lon="105.1395151"><ele>593.07</ele><time>2026-04-11T23:48:49.000Z</time></trkpt>
        <trkpt lat="28.5196605" lon="105.1394743"><ele>589.88</ele><time>2026-04-11T23:49:01.000Z</time></trkpt>
        <trkpt lat="28.5196135" lon="105.1393897"><ele>587.5</ele><time>2026-04-11T23:49:15.000Z</time></trkpt>
        <trkpt lat="28.5196315" lon="105.1392819"><ele>587.91</ele><time>2026-04-11T23:49:27.000Z</time></trkpt>
        <trkpt lat="28.5196862" lon="105.1391834"><ele>589.44</ele><time>2026-04-11T23:49:41.000Z</time></trkpt>
        <trkpt lat="28.5197016" lon="105.1390787"><ele>589.78</ele><time>2026-04-11T23:49:51.000Z</time></trkpt>
        <trkpt lat="28.5196898" lon="105.1389686"><ele>591.6</ele><time>2026-04-11T23:50:01.000Z</time></trkpt>
        <trkpt lat="28.5196649" lon="105.138854"><ele>594.08</ele><time>2026-04-11T23:50:13.000Z</time></trkpt>
        <trkpt lat="28.5196571" lon="105.1387308"><ele>597.69</ele><time>2026-04-11T23:50:25.000Z</time></trkpt>
        <trkpt lat="28.519667" lon="105.1386118"><ele>600.78</ele><time>2026-04-11T23:50:35.000Z</time></trkpt>
        <trkpt lat="28.5196899" lon="105.138506"><ele>602.42</ele><time>2026-04-11T23:50:47.000Z</time></trkpt>
        <trkpt lat="28.5197029" lon="105.1383976"><ele>601.75</ele><time>2026-04-11T23:50:59.000Z</time></trkpt>
        <trkpt lat="28.5197401" lon="105.1382958"><ele>598.82</ele><time>2026-04-11T23:51:19.000Z</time></trkpt>
        <trkpt lat="28.5197942" lon="105.1382687"><ele>597.64</ele><time>2026-04-11T23:51:29.000Z</time></trkpt>
        <trkpt lat="28.5197656" lon="105.138202"><ele>596.74</ele><time>2026-04-11T23:51:53.000Z</time></trkpt>
        <trkpt lat="28.5197692" lon="105.1381079"><ele>597.32</ele><time>2026-04-11T23:52:13.000Z</time></trkpt>
        <trkpt lat="28.51983" lon="105.1380282"><ele>596.92</ele><time>2026-04-11T23:52:45.000Z</time></trkpt>
        <trkpt lat="28.5198521" lon="105.137984"><ele>595.81</ele><time>2026-04-11T23:52:53.000Z</time></trkpt>
        <trkpt lat="28.5199231" lon="105.1379319"><ele>595.53</ele><time>2026-04-11T23:53:39.000Z</time></trkpt>
        <trkpt lat="28.5199972" lon="105.1378684"><ele>597.02</ele><time>2026-04-11T23:53:49.000Z</time></trkpt>
        <trkpt lat="28.5200107" lon="105.1377662"><ele>598.3</ele><time>2026-04-11T23:53:59.000Z</time></trkpt>
        <trkpt lat="28.5200035" lon="105.1377271"><ele>599.54</ele><time>2026-04-11T23:54:03.000Z</time></trkpt>
        <trkpt lat="28.5199276" lon="105.13768"><ele>600.24</ele><time>2026-04-11T23:54:15.000Z</time></trkpt>
        <trkpt lat="28.5198185" lon="105.1376713"><ele>601.27</ele><time>2026-04-11T23:54:27.000Z</time></trkpt>
        <trkpt lat="28.5197512" lon="105.1377558"><ele>602.27</ele><time>2026-04-11T23:54:35.000Z</time></trkpt>
        <trkpt lat="28.5197702" lon="105.1378376"><ele>604.02</ele><time>2026-04-11T23:54:51.000Z</time></trkpt>
        <trkpt lat="28.5197942" lon="105.1377399"><ele>604.27</ele><time>2026-04-11T23:55:55.000Z</time></trkpt>
        <trkpt lat="28.5197584" lon="105.1376377"><ele>604.3</ele><time>2026-04-11T23:56:05.000Z</time></trkpt>
        <trkpt lat="28.5196642" lon="105.137588"><ele>604.5</ele><time>2026-04-11T23:56:15.000Z</time></trkpt>
        <trkpt lat="28.5195496" lon="105.1375721"><ele>605.35</ele><time>2026-04-11T23:56:31.000Z</time></trkpt>
        <trkpt lat="28.5194618" lon="105.1376202"><ele>606.86</ele><time>2026-04-11T23:56:41.000Z</time></trkpt>
        <trkpt lat="28.5194584" lon="105.1376477"><ele>607.43</ele><time>2026-04-11T23:56:45.000Z</time></trkpt>
        <trkpt lat="28.5195098" lon="105.1375567"><ele>607.12</ele><time>2026-04-11T23:58:15.000Z</time></trkpt>
        <trkpt lat="28.5194106" lon="105.1375378"><ele>605.67</ele><time>2026-04-11T23:58:25.000Z</time></trkpt>
        <trkpt lat="28.5193268" lon="105.13747"><ele>605.29</ele><time>2026-04-11T23:58:37.000Z</time></trkpt>
        <trkpt lat="28.519272" lon="105.1373749"><ele>606.12</ele><time>2026-04-11T23:58:51.000Z</time></trkpt>
        <trkpt lat="28.5192488" lon="105.1372626"><ele>607.06</ele><time>2026-04-11T23:59:11.000Z</time></trkpt>
        <trkpt lat="28.5192747" lon="105.1371452"><ele>609.35</ele><time>2026-04-11T23:59:27.000Z</time></trkpt>
        <trkpt lat="28.5192524" lon="105.1370429"><ele>609.78</ele><time>2026-04-11T23:59:37.000Z</time></trkpt>
        <trkpt lat="28.5191897" lon="105.1369707"><ele>613.48</ele><time>2026-04-11T23:59:45.000Z</time></trkpt>
        <trkpt lat="28.5191273" lon="105.1368793"><ele>616</ele><time>2026-04-11T23:59:55.000Z</time></trkpt>
        <trkpt lat="28.5190902" lon="105.1367636"><ele>617.04</ele><time>2026-04-12T00:00:05.000Z</time></trkpt>
        <trkpt lat="28.5190513" lon="105.1366552"><ele>615.8</ele><time>2026-04-12T00:00:15.000Z</time></trkpt>
        <trkpt lat="28.5190198" lon="105.1366183"><ele>614.29</ele><time>2026-04-12T00:00:19.000Z</time></trkpt>
        <trkpt lat="28.5189417" lon="105.1365995"><ele>613.52</ele><time>2026-04-12T00:00:31.000Z</time></trkpt>
        <trkpt lat="28.5188436" lon="105.1366503"><ele>612.98</ele><time>2026-04-12T00:00:55.000Z</time></trkpt>
        <trkpt lat="28.5188102" lon="105.1366903"><ele>612.94</ele><time>2026-04-12T00:00:59.000Z</time></trkpt>
        <trkpt lat="28.518808" lon="105.136793"><ele>612.05</ele><time>2026-04-12T00:01:11.000Z</time></trkpt>
        <trkpt lat="28.518793" lon="105.1369059"><ele>611.25</ele><time>2026-04-12T00:01:23.000Z</time></trkpt>
        <trkpt lat="28.5187411" lon="105.1370103"><ele>614.1</ele><time>2026-04-12T00:01:37.000Z</time></trkpt>
        <trkpt lat="28.5186768" lon="105.1370956"><ele>617.06</ele><time>2026-04-12T00:01:49.000Z</time></trkpt>
        <trkpt lat="28.5186323" lon="105.137193"><ele>618.51</ele><time>2026-04-12T00:01:59.000Z</time></trkpt>
        <trkpt lat="28.5185821" lon="105.1372829"><ele>619.08</ele><time>2026-04-12T00:02:09.000Z</time></trkpt>
        <trkpt lat="28.5184979" lon="105.1372979"><ele>619.57</ele><time>2026-04-12T00:02:19.000Z</time></trkpt>
        <trkpt lat="28.5184339" lon="105.1372569"><ele>620.75</ele><time>2026-04-12T00:02:29.000Z</time></trkpt>
        <trkpt lat="28.518358" lon="105.1371797"><ele>621.25</ele><time>2026-04-12T00:02:41.000Z</time></trkpt>
        <trkpt lat="28.5182688" lon="105.1371312"><ele>624.38</ele><time>2026-04-12T00:02:49.000Z</time></trkpt>
        <trkpt lat="28.5181605" lon="105.1371103"><ele>627.34</ele><time>2026-04-12T00:03:01.000Z</time></trkpt>
        <trkpt lat="28.5180895" lon="105.1370375"><ele>630.53</ele><time>2026-04-12T00:03:45.000Z</time></trkpt>
        <trkpt lat="28.517997" lon="105.1370322"><ele>627.94</ele><time>2026-04-12T00:03:57.000Z</time></trkpt>
        <trkpt lat="28.5179079" lon="105.1370119"><ele>626.86</ele><time>2026-04-12T00:04:05.000Z</time></trkpt>
        <trkpt lat="28.5178769" lon="105.1370921"><ele>628.45</ele><time>2026-04-12T00:04:27.000Z</time></trkpt>
        <trkpt lat="28.5178248" lon="105.1371929"><ele>627.16</ele><time>2026-04-12T00:04:39.000Z</time></trkpt>
        <trkpt lat="28.5177898" lon="105.1373044"><ele>626.01</ele><time>2026-04-12T00:04:51.000Z</time></trkpt>
        <trkpt lat="28.5178044" lon="105.1374099"><ele>624.36</ele><time>2026-04-12T00:05:03.000Z</time></trkpt>
        <trkpt lat="28.5178206" lon="105.1375239"><ele>623.83</ele><time>2026-04-12T00:05:21.000Z</time></trkpt>
        <trkpt lat="28.5178314" lon="105.1375282"><ele>621.76</ele><time>2026-04-12T00:05:27.000Z</time></trkpt>
        <trkpt lat="28.5177956" lon="105.1374424"><ele>621.25</ele><time>2026-04-12T00:05:43.000Z</time></trkpt>
        <trkpt lat="28.5177263" lon="105.1373493"><ele>622.16</ele><time>2026-04-12T00:05:55.000Z</time></trkpt>
        <trkpt lat="28.517684" lon="105.1372613"><ele>624.79</ele><time>2026-04-12T00:06:05.000Z</time></trkpt>
        <trkpt lat="28.5176519" lon="105.1371616"><ele>626.73</ele><time>2026-04-12T00:06:21.000Z</time></trkpt>
        <trkpt lat="28.517639" lon="105.1371219"><ele>627.86</ele><time>2026-04-12T00:06:25.000Z</time></trkpt>
        <trkpt lat="28.5175904" lon="105.137055"><ele>628.72</ele><time>2026-04-12T00:07:15.000Z</time></trkpt>
        <trkpt lat="28.5175168" lon="105.1369842"><ele>631.31</ele><time>2026-04-12T00:07:35.000Z</time></trkpt>
        <trkpt lat="28.5174256" lon="105.1369145"><ele>637.37</ele><time>2026-04-12T00:07:51.000Z</time></trkpt>
        <trkpt lat="28.5173705" lon="105.136821"><ele>640.75</ele><time>2026-04-12T00:08:03.000Z</time></trkpt>
        <trkpt lat="28.5173044" lon="105.1367255"><ele>644.81</ele><time>2026-04-12T00:08:27.000Z</time></trkpt>
        <trkpt lat="28.5172184" lon="105.1366588"><ele>647.59</ele><time>2026-04-12T00:08:37.000Z</time></trkpt>
        <trkpt lat="28.5171509" lon="105.1366585"><ele>649.02</ele><time>2026-04-12T00:08:49.000Z</time></trkpt>
        <trkpt lat="28.5170715" lon="105.136702"><ele>649.53</ele><time>2026-04-12T00:09:21.000Z</time></trkpt>
        <trkpt lat="28.5170102" lon="105.1367441"><ele>648.05</ele><time>2026-04-12T00:09:31.000Z</time></trkpt>
        <trkpt lat="28.5169259" lon="105.1367619"><ele>647.09</ele><time>2026-04-12T00:09:57.000Z</time></trkpt>
        <trkpt lat="28.5169038" lon="105.1367495"><ele>646.81</ele><time>2026-04-12T00:10:05.000Z</time></trkpt>
        <trkpt lat="28.5168371" lon="105.1367599"><ele>646.65</ele><time>2026-04-12T00:10:27.000Z</time></trkpt>
        <trkpt lat="28.5167397" lon="105.1367537"><ele>645.67</ele><time>2026-04-12T00:10:41.000Z</time></trkpt>
        <trkpt lat="28.5166511" lon="105.1367872"><ele>643.15</ele><time>2026-04-12T00:10:49.000Z</time></trkpt>
        <trkpt lat="28.5165565" lon="105.1368029"><ele>643.04</ele><time>2026-04-12T00:11:07.000Z</time></trkpt>
        <trkpt lat="28.5165022" lon="105.1367848"><ele>642.43</ele><time>2026-04-12T00:11:27.000Z</time></trkpt>
        <trkpt lat="28.5164235" lon="105.1367436"><ele>638.42</ele><time>2026-04-12T00:11:47.000Z</time></trkpt>
        <trkpt lat="28.5163257" lon="105.1367183"><ele>635.99</ele><time>2026-04-12T00:13:53.000Z</time></trkpt>
        <trkpt lat="28.5162468" lon="105.1366692"><ele>633.92</ele><time>2026-04-12T00:16:59.000Z</time></trkpt>
        <trkpt lat="28.5161602" lon="105.1366237"><ele>628.24</ele><time>2026-04-12T00:18:17.000Z</time></trkpt>
        <trkpt lat="28.5160974" lon="105.13655"><ele>620.08</ele><time>2026-04-12T00:18:29.000Z</time></trkpt>
        <trkpt lat="28.5160319" lon="105.1364706"><ele>614.6</ele><time>2026-04-12T00:18:39.000Z</time></trkpt>
        <trkpt lat="28.5160131" lon="105.136448"><ele>610.2</ele><time>2026-04-12T00:18:45.000Z</time></trkpt>
        <trkpt lat="28.5159853" lon="105.1363753"><ele>605.82</ele><time>2026-04-12T00:19:01.000Z</time></trkpt>
        <trkpt lat="28.5159791" lon="105.1363525"><ele>601.89</ele><time>2026-04-12T00:19:03.000Z</time></trkpt>
        <trkpt lat="28.5159181" lon="105.1362896"><ele>599.65</ele><time>2026-04-12T00:19:33.000Z</time></trkpt>
        <trkpt lat="28.5158314" lon="105.1363061"><ele>599.9</ele><time>2026-04-12T00:20:17.000Z</time></trkpt>
        <trkpt lat="28.5158051" lon="105.1362392"><ele>600.28</ele><time>2026-04-12T00:20:21.000Z</time></trkpt>
        <trkpt lat="28.5158307" lon="105.1361378"><ele>599.57</ele><time>2026-04-12T00:20:29.000Z</time></trkpt>
        <trkpt lat="28.5158184" lon="105.1360448"><ele>599.37</ele><time>2026-04-12T00:20:41.000Z</time></trkpt>
        <trkpt lat="28.5157645" lon="105.1359631"><ele>599.22</ele><time>2026-04-12T00:20:57.000Z</time></trkpt>
        <trkpt lat="28.5156825" lon="105.1359056"><ele>600.09</ele><time>2026-04-12T00:21:13.000Z</time></trkpt>
        <trkpt lat="28.5155803" lon="105.1359573"><ele>602.06</ele><time>2026-04-12T00:22:23.000Z</time></trkpt>
        <trkpt lat="28.5155515" lon="105.1358784"><ele>604.68</ele><time>2026-04-12T00:22:33.000Z</time></trkpt>
        <trkpt lat="28.5156071" lon="105.1357961"><ele>604.87</ele><time>2026-04-12T00:22:59.000Z</time></trkpt>
        <trkpt lat="28.5156598" lon="105.135704"><ele>602.63</ele><time>2026-04-12T00:23:11.000Z</time></trkpt>
        <trkpt lat="28.5157049" lon="105.1356551"><ele>601.01</ele><time>2026-04-12T00:23:25.000Z</time></trkpt>
        <trkpt lat="28.515654" lon="105.1356888"><ele>597.67</ele><time>2026-04-12T00:23:39.000Z</time></trkpt>
        <trkpt lat="28.5156104" lon="105.1357898"><ele>595.37</ele><time>2026-04-12T00:23:47.000Z</time></trkpt>
        <trkpt lat="28.515581" lon="105.135866"><ele>595.89</ele><time>2026-04-12T00:23:57.000Z</time></trkpt>
        <trkpt lat="28.5156547" lon="105.1358871"><ele>596.58</ele><time>2026-04-12T00:24:25.000Z</time></trkpt>
        <trkpt lat="28.5157121" lon="105.1358106"><ele>595.11</ele><time>2026-04-12T00:24:35.000Z</time></trkpt>
        <trkpt lat="28.5156797" lon="105.1357263"><ele>594.23</ele><time>2026-04-12T00:24:43.000Z</time></trkpt>
        <trkpt lat="28.5156204" lon="105.1356279"><ele>591.74</ele><time>2026-04-12T00:24:57.000Z</time></trkpt>
        <trkpt lat="28.5155681" lon="105.1355202"><ele>588.4</ele><time>2026-04-12T00:25:11.000Z</time></trkpt>
        <trkpt lat="28.5155473" lon="105.1354717"><ele>586.86</ele><time>2026-04-12T00:25:15.000Z</time></trkpt>
        <trkpt lat="28.5154826" lon="105.1354193"><ele>585.8</ele><time>2026-04-12T00:27:17.000Z</time></trkpt>
        <trkpt lat="28.5154773" lon="105.1354296"><ele>587.77</ele><time>2026-04-12T00:27:19.000Z</time></trkpt>
        <trkpt lat="28.5155535" lon="105.1353746"><ele>589.1</ele><time>2026-04-12T00:28:31.000Z</time></trkpt>
        <trkpt lat="28.515462" lon="105.135348"><ele>593.64</ele><time>2026-04-12T00:28:43.000Z</time></trkpt>
        <trkpt lat="28.5153742" lon="105.1353845"><ele>598.15</ele><time>2026-04-12T00:30:23.000Z</time></trkpt>
        <trkpt lat="28.515126" lon="105.1353893"><ele>606.23</ele><time>2026-04-12T00:31:11.000Z</time></trkpt>
        <trkpt lat="28.5149975" lon="105.1354796"><ele>622.86</ele><time>2026-04-12T00:32:29.000Z</time></trkpt>
        <trkpt lat="28.5150943" lon="105.135502"><ele>634.08</ele><time>2026-04-12T00:33:01.000Z</time></trkpt>
        <trkpt lat="28.5151951" lon="105.135536"><ele>638.09</ele><time>2026-04-12T00:33:11.000Z</time></trkpt>
        <trkpt lat="28.5152957" lon="105.1355615"><ele>639.45</ele><time>2026-04-12T00:33:21.000Z</time></trkpt>
        <trkpt lat="28.5153862" lon="105.1356089"><ele>640.63</ele><time>2026-04-12T00:33:31.000Z</time></trkpt>
        <trkpt lat="28.5154645" lon="105.1356654"><ele>640.29</ele><time>2026-04-12T00:33:41.000Z</time></trkpt>
        <trkpt lat="28.5155283" lon="105.1356904"><ele>640.12</ele><time>2026-04-12T00:33:49.000Z</time></trkpt>
        <trkpt lat="28.515469" lon="105.1356559"><ele>638.96</ele><time>2026-04-12T00:34:43.000Z</time></trkpt>
        <trkpt lat="28.5154149" lon="105.1356211"><ele>642.12</ele><time>2026-04-12T00:34:55.000Z</time></trkpt>
        <trkpt lat="28.5153393" lon="105.1355542"><ele>644.01</ele><time>2026-04-12T00:35:15.000Z</time></trkpt>
        <trkpt lat="28.5152446" lon="105.1355107"><ele>644.56</ele><time>2026-04-12T00:35:35.000Z</time></trkpt>
        <trkpt lat="28.5151305" lon="105.1354888"><ele>646.03</ele><time>2026-04-12T00:35:53.000Z</time></trkpt>
        <trkpt lat="28.5150271" lon="105.1355007"><ele>648.6</ele><time>2026-04-12T00:36:07.000Z</time></trkpt>
        <trkpt lat="28.5149334" lon="105.1354942"><ele>650.16</ele><time>2026-04-12T00:36:21.000Z</time></trkpt>
        <trkpt lat="28.514833" lon="105.1354722"><ele>651.19</ele><time>2026-04-12T00:36:35.000Z</time></trkpt>
        <trkpt lat="28.5147485" lon="105.1354274"><ele>650.88</ele><time>2026-04-12T00:36:49.000Z</time></trkpt>
        <trkpt lat="28.5146609" lon="105.1353983"><ele>650.32</ele><time>2026-04-12T00:37:05.000Z</time></trkpt>
        <trkpt lat="28.5145673" lon="105.1353668"><ele>648.71</ele><time>2026-04-12T00:37:17.000Z</time></trkpt>
        <trkpt lat="28.5144824" lon="105.1353202"><ele>647.23</ele><time>2026-04-12T00:37:29.000Z</time></trkpt>
        <trkpt lat="28.5143909" lon="105.1352789"><ele>645.62</ele><time>2026-04-12T00:37:39.000Z</time></trkpt>
        <trkpt lat="28.5143003" lon="105.135239"><ele>643.08</ele><time>2026-04-12T00:37:49.000Z</time></trkpt>
        <trkpt lat="28.5142033" lon="105.1352052"><ele>640.74</ele><time>2026-04-12T00:38:01.000Z</time></trkpt>
        <trkpt lat="28.514111" lon="105.1351773"><ele>638.9</ele><time>2026-04-12T00:38:09.000Z</time></trkpt>
        <trkpt lat="28.514007" lon="105.1351593"><ele>638.04</ele><time>2026-04-12T00:38:21.000Z</time></trkpt>
        <trkpt lat="28.5139077" lon="105.1351409"><ele>638.03</ele><time>2026-04-12T00:38:31.000Z</time></trkpt>
        <trkpt lat="28.5138178" lon="105.1350909"><ele>637.86</ele><time>2026-04-12T00:38:41.000Z</time></trkpt>
        <trkpt lat="28.5137157" lon="105.1350638"><ele>636.76</ele><time>2026-04-12T00:38:51.000Z</time></trkpt>
        <trkpt lat="28.5136183" lon="105.1350527"><ele>635.08</ele><time>2026-04-12T00:38:59.000Z</time></trkpt>
        <trkpt lat="28.5135208" lon="105.135019"><ele>633.7</ele><time>2026-04-12T00:39:31.000Z</time></trkpt>
        <trkpt lat="28.5134296" lon="105.1350294"><ele>630.31</ele><time>2026-04-12T00:39:45.000Z</time></trkpt>
        <trkpt lat="28.5133402" lon="105.1350259"><ele>629.92</ele><time>2026-04-12T00:40:17.000Z</time></trkpt>
        <trkpt lat="28.5132511" lon="105.1350111"><ele>630.71</ele><time>2026-04-12T00:40:37.000Z</time></trkpt>
        <trkpt lat="28.5131569" lon="105.1350285"><ele>630.91</ele><time>2026-04-12T00:40:57.000Z</time></trkpt>
        <trkpt lat="28.5130714" lon="105.1350786"><ele>631.28</ele><time>2026-04-12T00:41:05.000Z</time></trkpt>
        <trkpt lat="28.5129816" lon="105.1351043"><ele>631.43</ele><time>2026-04-12T00:41:15.000Z</time></trkpt>
        <trkpt lat="28.5128823" lon="105.1351356"><ele>631.54</ele><time>2026-04-12T00:41:27.000Z</time></trkpt>
        <trkpt lat="28.5127855" lon="105.135187"><ele>631.12</ele><time>2026-04-12T00:41:37.000Z</time></trkpt>
        <trkpt lat="28.512708" lon="105.1352557"><ele>633.03</ele><time>2026-04-12T00:41:43.000Z</time></trkpt>
        <trkpt lat="28.5126338" lon="105.1353294"><ele>634</ele><time>2026-04-12T00:41:51.000Z</time></trkpt>
        <trkpt lat="28.5125526" lon="105.135394"><ele>634.17</ele><time>2026-04-12T00:41:59.000Z</time></trkpt>
        <trkpt lat="28.5125425" lon="105.1354301"><ele>634.55</ele><time>2026-04-12T00:42:05.000Z</time></trkpt>
        <trkpt lat="28.5125002" lon="105.135502"><ele>634.76</ele><time>2026-04-12T00:42:15.000Z</time></trkpt>
        <trkpt lat="28.5124265" lon="105.1355616"><ele>634.94</ele><time>2026-04-12T00:42:25.000Z</time></trkpt>
        <trkpt lat="28.5123487" lon="105.1356265"><ele>632.99</ele><time>2026-04-12T00:42:33.000Z</time></trkpt>
        <trkpt lat="28.5122938" lon="105.1356453"><ele>630.84</ele><time>2026-04-12T00:42:37.000Z</time></trkpt>
        <trkpt lat="28.5122282" lon="105.1356992"><ele>630</ele><time>2026-04-12T00:42:49.000Z</time></trkpt>
        <trkpt lat="28.5122029" lon="105.1357942"><ele>628.87</ele><time>2026-04-12T00:43:01.000Z</time></trkpt>
        <trkpt lat="28.512263" lon="105.1358632"><ele>627.98</ele><time>2026-04-12T00:43:24.000Z</time></trkpt>
        <trkpt lat="28.5120894" lon="105.1358523"><ele>627.1</ele><time>2026-04-12T00:44:05.000Z</time></trkpt>
        <trkpt lat="28.5119487" lon="105.1358498"><ele>629.79</ele><time>2026-04-12T00:44:18.000Z</time></trkpt>
        <trkpt lat="28.5118196" lon="105.1358733"><ele>629.31</ele><time>2026-04-12T00:44:30.000Z</time></trkpt>
        <trkpt lat="28.5117083" lon="105.1358919"><ele>629.79</ele><time>2026-04-12T00:44:36.000Z</time></trkpt>
        <trkpt lat="28.5116618" lon="105.1359141"><ele>631.86</ele><time>2026-04-12T00:44:46.000Z</time></trkpt>
        <trkpt lat="28.5116173" lon="105.1359893"><ele>630.37</ele><time>2026-04-12T00:44:54.000Z</time></trkpt>
        <trkpt lat="28.5115429" lon="105.1359967"><ele>630.83</ele><time>2026-04-12T00:45:04.000Z</time></trkpt>
        <trkpt lat="28.5114366" lon="105.1360011"><ele>629.77</ele><time>2026-04-12T00:45:12.000Z</time></trkpt>
        <trkpt lat="28.511328" lon="105.1360248"><ele>628.21</ele><time>2026-04-12T00:45:20.000Z</time></trkpt>
        <trkpt lat="28.5112254" lon="105.1360671"><ele>626.2</ele><time>2026-04-12T00:45:30.000Z</time></trkpt>
        <trkpt lat="28.511133" lon="105.1361033"><ele>625.44</ele><time>2026-04-12T00:45:38.000Z</time></trkpt>
        <trkpt lat="28.5111102" lon="105.1360358"><ele>625.38</ele><time>2026-04-12T00:45:44.000Z</time></trkpt>
        <trkpt lat="28.5111109" lon="105.1359086"><ele>623.75</ele><time>2026-04-12T00:45:52.000Z</time></trkpt>
        <trkpt lat="28.5110935" lon="105.135776"><ele>621.31</ele><time>2026-04-12T00:46:02.000Z</time></trkpt>
        <trkpt lat="28.5111098" lon="105.1356525"><ele>621.8</ele><time>2026-04-12T00:46:10.000Z</time></trkpt>
        <trkpt lat="28.5110512" lon="105.1356251"><ele>621.66</ele><time>2026-04-12T00:46:20.000Z</time></trkpt>
        <trkpt lat="28.5109899" lon="105.1356973"><ele>623.5</ele><time>2026-04-12T00:46:34.000Z</time></trkpt>
        <trkpt lat="28.5109556" lon="105.1357383"><ele>625.87</ele><time>2026-04-12T00:46:50.000Z</time></trkpt>
        <trkpt lat="28.5108789" lon="105.135795"><ele>629.83</ele><time>2026-04-12T00:47:08.000Z</time></trkpt>
        <trkpt lat="28.5107744" lon="105.1357953"><ele>632.85</ele><time>2026-04-12T00:47:26.000Z</time></trkpt>
        <trkpt lat="28.5106656" lon="105.1357979"><ele>636.56</ele><time>2026-04-12T00:47:58.000Z</time></trkpt>
        <trkpt lat="28.5105997" lon="105.1358701"><ele>639.27</ele><time>2026-04-12T00:48:08.000Z</time></trkpt>
        <trkpt lat="28.5105581" lon="105.1359737"><ele>640.56</ele><time>2026-04-12T00:48:20.000Z</time></trkpt>
        <trkpt lat="28.5105445" lon="105.1360834"><ele>640.68</ele><time>2026-04-12T00:48:32.000Z</time></trkpt>
        <trkpt lat="28.5105318" lon="105.1361915"><ele>638.83</ele><time>2026-04-12T00:48:42.000Z</time></trkpt>
        <trkpt lat="28.5105787" lon="105.1362782"><ele>636.58</ele><time>2026-04-12T00:48:54.000Z</time></trkpt>
        <trkpt lat="28.5105312" lon="105.136354"><ele>632.73</ele><time>2026-04-12T00:49:06.000Z</time></trkpt>
        <trkpt lat="28.5105234" lon="105.1364499"><ele>629.55</ele><time>2026-04-12T00:49:16.000Z</time></trkpt>
        <trkpt lat="28.5104625" lon="105.1365317"><ele>626.73</ele><time>2026-04-12T00:49:28.000Z</time></trkpt>
        <trkpt lat="28.5103765" lon="105.1366041"><ele>622.21</ele><time>2026-04-12T00:49:40.000Z</time></trkpt>
        <trkpt lat="28.5103035" lon="105.1366834"><ele>618.93</ele><time>2026-04-12T00:49:48.000Z</time></trkpt>
        <trkpt lat="28.5102322" lon="105.1367715"><ele>616.85</ele><time>2026-04-12T00:49:58.000Z</time></trkpt>
        <trkpt lat="28.5101494" lon="105.1368488"><ele>616.38</ele><time>2026-04-12T00:50:08.000Z</time></trkpt>
        <trkpt lat="28.5100679" lon="105.1369028"><ele>616.48</ele><time>2026-04-12T00:50:22.000Z</time></trkpt>
        <trkpt lat="28.5100046" lon="105.1369745"><ele>616.18</ele><time>2026-04-12T00:50:42.000Z</time></trkpt>
        <trkpt lat="28.5099244" lon="105.137032"><ele>617.19</ele><time>2026-04-12T00:50:58.000Z</time></trkpt>
        <trkpt lat="28.5098498" lon="105.1371067"><ele>619.44</ele><time>2026-04-12T00:51:20.000Z</time></trkpt>
        <trkpt lat="28.5097914" lon="105.1372015"><ele>622.53</ele><time>2026-04-12T00:51:34.000Z</time></trkpt>
        <trkpt lat="28.5097372" lon="105.1372968"><ele>624.41</ele><time>2026-04-12T00:51:58.000Z</time></trkpt>
        <trkpt lat="28.5097361" lon="105.1374053"><ele>628.08</ele><time>2026-04-12T00:53:24.000Z</time></trkpt>
        <trkpt lat="28.5097292" lon="105.1375239"><ele>632.83</ele><time>2026-04-12T00:53:36.000Z</time></trkpt>
        <trkpt lat="28.5096868" lon="105.1376281"><ele>635.39</ele><time>2026-04-12T00:53:48.000Z</time></trkpt>
        <trkpt lat="28.5096882" lon="105.1377332"><ele>637.26</ele><time>2026-04-12T00:54:44.000Z</time></trkpt>
        <trkpt lat="28.5096727" lon="105.1378042"><ele>635.79</ele><time>2026-04-12T00:54:52.000Z</time></trkpt>
        <trkpt lat="28.5096264" lon="105.1378793"><ele>633.96</ele><time>2026-04-12T00:55:12.000Z</time></trkpt>
        <trkpt lat="28.5096065" lon="105.1379734"><ele>631.23</ele><time>2026-04-12T00:55:40.000Z</time></trkpt>
        <trkpt lat="28.5095602" lon="105.1380647"><ele>627.69</ele><time>2026-04-12T00:55:52.000Z</time></trkpt>
        <trkpt lat="28.5094913" lon="105.1381575"><ele>626.2</ele><time>2026-04-12T00:56:24.000Z</time></trkpt>
        <trkpt lat="28.5094474" lon="105.1382688"><ele>623.15</ele><time>2026-04-12T00:56:34.000Z</time></trkpt>
        <trkpt lat="28.5093707" lon="105.1383476"><ele>621.71</ele><time>2026-04-12T00:56:46.000Z</time></trkpt>
        <trkpt lat="28.5092869" lon="105.1384007"><ele>621.98</ele><time>2026-04-12T00:57:00.000Z</time></trkpt>
        <trkpt lat="28.5091899" lon="105.1384032"><ele>622.08</ele><time>2026-04-12T00:57:22.000Z</time></trkpt>
        <trkpt lat="28.5090989" lon="105.1384373"><ele>621.82</ele><time>2026-04-12T00:57:32.000Z</time></trkpt>
        <trkpt lat="28.509015" lon="105.138484"><ele>619.84</ele><time>2026-04-12T00:57:42.000Z</time></trkpt>
        <trkpt lat="28.5089562" lon="105.1385531"><ele>617.69</ele><time>2026-04-12T00:57:52.000Z</time></trkpt>
        <trkpt lat="28.5089989" lon="105.1386205"><ele>616.18</ele><time>2026-04-12T00:58:12.000Z</time></trkpt>
        <trkpt lat="28.5091013" lon="105.1386183"><ele>613.9</ele><time>2026-04-12T00:58:22.000Z</time></trkpt>
        <trkpt lat="28.5092007" lon="105.1385603"><ele>611.17</ele><time>2026-04-12T00:58:32.000Z</time></trkpt>
        <trkpt lat="28.5093059" lon="105.1385004"><ele>609.63</ele><time>2026-04-12T00:58:44.000Z</time></trkpt>
        <trkpt lat="28.5094084" lon="105.1384709"><ele>606.7</ele><time>2026-04-12T00:58:54.000Z</time></trkpt>
        <trkpt lat="28.5095073" lon="105.13848"><ele>605.26</ele><time>2026-04-12T00:59:06.000Z</time></trkpt>
        <trkpt lat="28.5096003" lon="105.1384816"><ele>604.37</ele><time>2026-04-12T00:59:20.000Z</time></trkpt>
        <trkpt lat="28.5096279" lon="105.1383748"><ele>602.51</ele><time>2026-04-12T01:00:42.000Z</time></trkpt>
        <trkpt lat="28.5096652" lon="105.1384748"><ele>599.75</ele><time>2026-04-12T01:00:54.000Z</time></trkpt>
        <trkpt lat="28.5096694" lon="105.1385829"><ele>596.54</ele><time>2026-04-12T01:01:06.000Z</time></trkpt>
        <trkpt lat="28.509591" lon="105.1386351"><ele>593.26</ele><time>2026-04-12T01:01:18.000Z</time></trkpt>
        <trkpt lat="28.5096227" lon="105.1386808"><ele>591.42</ele><time>2026-04-12T01:01:30.000Z</time></trkpt>
        <trkpt lat="28.5097049" lon="105.1387039"><ele>590.76</ele><time>2026-04-12T01:01:44.000Z</time></trkpt>
        <trkpt lat="28.5097952" lon="105.1386597"><ele>587.34</ele><time>2026-04-12T01:02:02.000Z</time></trkpt>
        <trkpt lat="28.5098557" lon="105.1385663"><ele>582.27</ele><time>2026-04-12T01:02:10.000Z</time></trkpt>
        <trkpt lat="28.5098976" lon="105.1386074"><ele>579.87</ele><time>2026-04-12T01:02:28.000Z</time></trkpt>
        <trkpt lat="28.5098878" lon="105.1387055"><ele>576.04</ele><time>2026-04-12T01:02:40.000Z</time></trkpt>
        <trkpt lat="28.5098744" lon="105.1387477"><ele>574.48</ele><time>2026-04-12T01:02:42.000Z</time></trkpt>
        <trkpt lat="28.5098545" lon="105.138835"><ele>573.71</ele><time>2026-04-12T01:03:08.000Z</time></trkpt>
        <trkpt lat="28.5098205" lon="105.1389329"><ele>573.4</ele><time>2026-04-12T01:03:24.000Z</time></trkpt>
        <trkpt lat="28.5097348" lon="105.1389856"><ele>571.43</ele><time>2026-04-12T01:03:36.000Z</time></trkpt>
        <trkpt lat="28.5096365" lon="105.1389941"><ele>571.24</ele><time>2026-04-12T01:03:46.000Z</time></trkpt>
        <trkpt lat="28.5095608" lon="105.1389481"><ele>571.55</ele><time>2026-04-12T01:04:04.000Z</time></trkpt>
        <trkpt lat="28.5095643" lon="105.1390002"><ele>568.78</ele><time>2026-04-12T01:04:30.000Z</time></trkpt>
        <trkpt lat="28.5095969" lon="105.1390977"><ele>561.22</ele><time>2026-04-12T01:04:38.000Z</time></trkpt>
        <trkpt lat="28.5096898" lon="105.1391419"><ele>556.66</ele><time>2026-04-12T01:04:46.000Z</time></trkpt>
        <trkpt lat="28.5097915" lon="105.1391674"><ele>554.67</ele><time>2026-04-12T01:04:56.000Z</time></trkpt>
        <trkpt lat="28.5098844" lon="105.1392182"><ele>553.42</ele><time>2026-04-12T01:05:08.000Z</time></trkpt>
        <trkpt lat="28.5099546" lon="105.1392917"><ele>551.63</ele><time>2026-04-12T01:05:22.000Z</time></trkpt>
        <trkpt lat="28.5100249" lon="105.1393785"><ele>550.45</ele><time>2026-04-12T01:05:34.000Z</time></trkpt>
        <trkpt lat="28.5101048" lon="105.1394365"><ele>549.03</ele><time>2026-04-12T01:05:52.000Z</time></trkpt>
        <trkpt lat="28.5101925" lon="105.1394164"><ele>545.38</ele><time>2026-04-12T01:06:02.000Z</time></trkpt>
        <trkpt lat="28.5102397" lon="105.139314"><ele>541.51</ele><time>2026-04-12T01:06:14.000Z</time></trkpt>
        <trkpt lat="28.5102437" lon="105.1393582"><ele>537.71</ele><time>2026-04-12T01:06:34.000Z</time></trkpt>
        <trkpt lat="28.5102747" lon="105.1394453"><ele>534.27</ele><time>2026-04-12T01:06:48.000Z</time></trkpt>
        <trkpt lat="28.5103262" lon="105.1395523"><ele>532.24</ele><time>2026-04-12T01:07:02.000Z</time></trkpt>
        <trkpt lat="28.5103809" lon="105.1396528"><ele>529.73</ele><time>2026-04-12T01:07:18.000Z</time></trkpt>
        <trkpt lat="28.5104158" lon="105.1397631"><ele>526.02</ele><time>2026-04-12T01:07:42.000Z</time></trkpt>
        <trkpt lat="28.5104967" lon="105.1398155"><ele>522.82</ele><time>2026-04-12T01:08:02.000Z</time></trkpt>
        <trkpt lat="28.5105878" lon="105.1398072"><ele>518.03</ele><time>2026-04-12T01:08:18.000Z</time></trkpt>
        <trkpt lat="28.5106227" lon="105.1398842"><ele>512.71</ele><time>2026-04-12T01:08:32.000Z</time></trkpt>
        <trkpt lat="28.5106411" lon="105.1399874"><ele>508.12</ele><time>2026-04-12T01:08:46.000Z</time></trkpt>
        <trkpt lat="28.5107095" lon="105.140045"><ele>504.04</ele><time>2026-04-12T01:09:04.000Z</time></trkpt>
        <trkpt lat="28.5108017" lon="105.1400419"><ele>500.51</ele><time>2026-04-12T01:09:22.000Z</time></trkpt>
        <trkpt lat="28.510881" lon="105.1399664"><ele>496.53</ele><time>2026-04-12T01:09:34.000Z</time></trkpt>
        <trkpt lat="28.5108848" lon="105.139898"><ele>494.1</ele><time>2026-04-12T01:09:42.000Z</time></trkpt>
        <trkpt lat="28.510851" lon="105.1397913"><ele>492.58</ele><time>2026-04-12T01:10:38.000Z</time></trkpt>
        <trkpt lat="28.5107799" lon="105.1396968"><ele>491.33</ele><time>2026-04-12T01:10:48.000Z</time></trkpt>
        <trkpt lat="28.5106998" lon="105.1395959"><ele>491</ele><time>2026-04-12T01:10:58.000Z</time></trkpt>
        <trkpt lat="28.5106406" lon="105.1394965"><ele>491.8</ele><time>2026-04-12T01:11:10.000Z</time></trkpt>
        <trkpt lat="28.5105955" lon="105.1393822"><ele>491.65</ele><time>2026-04-12T01:11:18.000Z</time></trkpt>
        <trkpt lat="28.5105717" lon="105.139262"><ele>490.42</ele><time>2026-04-12T01:11:24.000Z</time></trkpt>
        <trkpt lat="28.5105779" lon="105.1391416"><ele>490.68</ele><time>2026-04-12T01:11:34.000Z</time></trkpt>
        <trkpt lat="28.5106344" lon="105.1390504"><ele>490.35</ele><time>2026-04-12T01:11:44.000Z</time></trkpt>
        <trkpt lat="28.5107257" lon="105.1390401"><ele>488.22</ele><time>2026-04-12T01:11:54.000Z</time></trkpt>
        <trkpt lat="28.5108319" lon="105.1390784"><ele>486.12</ele><time>2026-04-12T01:12:02.000Z</time></trkpt>
        <trkpt lat="28.5109242" lon="105.139164"><ele>485.63</ele><time>2026-04-12T01:12:12.000Z</time></trkpt>
        <trkpt lat="28.5110256" lon="105.139239"><ele>486.96</ele><time>2026-04-12T01:12:22.000Z</time></trkpt>
        <trkpt lat="28.5111201" lon="105.1392817"><ele>490.32</ele><time>2026-04-12T01:12:30.000Z</time></trkpt>
        <trkpt lat="28.5112134" lon="105.1393312"><ele>491.73</ele><time>2026-04-12T01:12:38.000Z</time></trkpt>
        <trkpt lat="28.5112883" lon="105.1393939"><ele>492.14</ele><time>2026-04-12T01:12:46.000Z</time></trkpt>
        <trkpt lat="28.5113802" lon="105.1394396"><ele>493.59</ele><time>2026-04-12T01:12:56.000Z</time></trkpt>
        <trkpt lat="28.5114814" lon="105.1394348"><ele>493.81</ele><time>2026-04-12T01:13:04.000Z</time></trkpt>
        <trkpt lat="28.5115766" lon="105.1393935"><ele>493.99</ele><time>2026-04-12T01:13:12.000Z</time></trkpt>
        <trkpt lat="28.5116542" lon="105.1393093"><ele>493.87</ele><time>2026-04-12T01:13:22.000Z</time></trkpt>
        <trkpt lat="28.5116688" lon="105.1391901"><ele>494.01</ele><time>2026-04-12T01:13:32.000Z</time></trkpt>
        <trkpt lat="28.5116241" lon="105.1390793"><ele>493.6</ele><time>2026-04-12T01:13:40.000Z</time></trkpt>
        <trkpt lat="28.5115434" lon="105.1389953"><ele>493.21</ele><time>2026-04-12T01:13:50.000Z</time></trkpt>
        <trkpt lat="28.511475" lon="105.1388997"><ele>493.22</ele><time>2026-04-12T01:14:00.000Z</time></trkpt>
        <trkpt lat="28.5114196" lon="105.1388068"><ele>493.04</ele><time>2026-04-12T01:14:08.000Z</time></trkpt>
        <trkpt lat="28.511371" lon="105.1387153"><ele>492.37</ele><time>2026-04-12T01:14:16.000Z</time></trkpt>
        <trkpt lat="28.5113091" lon="105.1386412"><ele>490.61</ele><time>2026-04-12T01:14:24.000Z</time></trkpt>
        <trkpt lat="28.5112534" lon="105.1385432"><ele>488.44</ele><time>2026-04-12T01:14:32.000Z</time></trkpt>
        <trkpt lat="28.5112268" lon="105.1384209"><ele>486.46</ele><time>2026-04-12T01:14:40.000Z</time></trkpt>
        <trkpt lat="28.5111998" lon="105.1383118"><ele>484.54</ele><time>2026-04-12T01:14:48.000Z</time></trkpt>
        <trkpt lat="28.5112331" lon="105.1382177"><ele>483.9</ele><time>2026-04-12T01:14:58.000Z</time></trkpt>
        <trkpt lat="28.5113218" lon="105.1381822"><ele>484.12</ele><time>2026-04-12T01:15:22.000Z</time></trkpt>
        <trkpt lat="28.5114018" lon="105.1383047"><ele>484.83</ele><time>2026-04-12T01:17:32.000Z</time></trkpt>
        <trkpt lat="28.5115046" lon="105.1383596"><ele>485.07</ele><time>2026-04-12T01:17:42.000Z</time></trkpt>
        <trkpt lat="28.5116084" lon="105.13838"><ele>487.5</ele><time>2026-04-12T01:18:00.000Z</time></trkpt>
        <trkpt lat="28.5117072" lon="105.1383991"><ele>489.17</ele><time>2026-04-12T01:18:10.000Z</time></trkpt>
        <trkpt lat="28.5118152" lon="105.138407"><ele>489.91</ele><time>2026-04-12T01:18:20.000Z</time></trkpt>
        <trkpt lat="28.5119136" lon="105.1383985"><ele>491.1</ele><time>2026-04-12T01:18:30.000Z</time></trkpt>
        <trkpt lat="28.5120084" lon="105.1383538"><ele>491.49</ele><time>2026-04-12T01:18:42.000Z</time></trkpt>
        <trkpt lat="28.5120786" lon="105.1382666"><ele>490.17</ele><time>2026-04-12T01:18:52.000Z</time></trkpt>
        <trkpt lat="28.5120872" lon="105.1381518"><ele>490.68</ele><time>2026-04-12T01:19:02.000Z</time></trkpt>
        <trkpt lat="28.5120913" lon="105.1380253"><ele>489.99</ele><time>2026-04-12T01:19:12.000Z</time></trkpt>
        <trkpt lat="28.5120834" lon="105.1379109"><ele>489.22</ele><time>2026-04-12T01:19:20.000Z</time></trkpt>
        <trkpt lat="28.5120915" lon="105.1377971"><ele>489.49</ele><time>2026-04-12T01:19:28.000Z</time></trkpt>
        <trkpt lat="28.5121665" lon="105.1377561"><ele>488.88</ele><time>2026-04-12T01:19:38.000Z</time></trkpt>
        <trkpt lat="28.5122697" lon="105.1377737"><ele>488.37</ele><time>2026-04-12T01:19:50.000Z</time></trkpt>
        <trkpt lat="28.5123068" lon="105.1377945"><ele>487.59</ele><time>2026-04-12T01:19:54.000Z</time></trkpt>
        <trkpt lat="28.5123719" lon="105.1377531"><ele>487.22</ele><time>2026-04-12T01:20:04.000Z</time></trkpt>
        <trkpt lat="28.5123667" lon="105.137659"><ele>487.89</ele><time>2026-04-12T01:20:16.000Z</time></trkpt>
        <trkpt lat="28.5124108" lon="105.137564"><ele>489.29</ele><time>2026-04-12T01:20:26.000Z</time></trkpt>
        <trkpt lat="28.5124957" lon="105.1375717"><ele>490.11</ele><time>2026-04-12T01:20:34.000Z</time></trkpt>
        <trkpt lat="28.5125899" lon="105.1376101"><ele>490.26</ele><time>2026-04-12T01:20:44.000Z</time></trkpt>
        <trkpt lat="28.5126974" lon="105.1376394"><ele>491.33</ele><time>2026-04-12T01:20:54.000Z</time></trkpt>
        <trkpt lat="28.5127847" lon="105.1376804"><ele>491.8</ele><time>2026-04-12T01:21:04.000Z</time></trkpt>
        <trkpt lat="28.5128781" lon="105.1376974"><ele>492.29</ele><time>2026-04-12T01:21:16.000Z</time></trkpt>
        <trkpt lat="28.5129586" lon="105.137652"><ele>493.16</ele><time>2026-04-12T01:21:34.000Z</time></trkpt>
        <trkpt lat="28.5130286" lon="105.1375792"><ele>493.09</ele><time>2026-04-12T01:21:44.000Z</time></trkpt>
        <trkpt lat="28.513084" lon="105.1374791"><ele>494.29</ele><time>2026-04-12T01:21:58.000Z</time></trkpt>
        <trkpt lat="28.5131505" lon="105.1373835"><ele>495.5</ele><time>2026-04-12T01:22:10.000Z</time></trkpt>
        <trkpt lat="28.5132063" lon="105.1372767"><ele>497</ele><time>2026-04-12T01:22:22.000Z</time></trkpt>
        <trkpt lat="28.5132465" lon="105.1371744"><ele>497.43</ele><time>2026-04-12T01:22:32.000Z</time></trkpt>
        <trkpt lat="28.5132571" lon="105.1370696"><ele>496.93</ele><time>2026-04-12T01:22:42.000Z</time></trkpt>
        <trkpt lat="28.5132662" lon="105.1369614"><ele>495.7</ele><time>2026-04-12T01:22:52.000Z</time></trkpt>
        <trkpt lat="28.5133175" lon="105.136876"><ele>494.06</ele><time>2026-04-12T01:23:02.000Z</time></trkpt>
        <trkpt lat="28.5134048" lon="105.1368162"><ele>491.5</ele><time>2026-04-12T01:23:12.000Z</time></trkpt>
        <trkpt lat="28.5134829" lon="105.1367356"><ele>490.9</ele><time>2026-04-12T01:23:24.000Z</time></trkpt>
        <trkpt lat="28.5135293" lon="105.136641"><ele>489.81</ele><time>2026-04-12T01:23:36.000Z</time></trkpt>
        <trkpt lat="28.5135972" lon="105.1365527"><ele>490.52</ele><time>2026-04-12T01:23:46.000Z</time></trkpt>
        <trkpt lat="28.5136935" lon="105.1365335"><ele>491.3</ele><time>2026-04-12T01:23:56.000Z</time></trkpt>
        <trkpt lat="28.5137462" lon="105.1366126"><ele>492</ele><time>2026-04-12T01:24:06.000Z</time></trkpt>
        <trkpt lat="28.5138031" lon="105.1366321"><ele>493.02</ele><time>2026-04-12T01:24:26.000Z</time></trkpt>
        <trkpt lat="28.5137615" lon="105.1367414"><ele>496.16</ele><time>2026-04-12T01:26:18.000Z</time></trkpt>
        <trkpt lat="28.5138066" lon="105.1368371"><ele>499.74</ele><time>2026-04-12T01:26:34.000Z</time></trkpt>
        <trkpt lat="28.5138538" lon="105.1369401"><ele>501.85</ele><time>2026-04-12T01:26:52.000Z</time></trkpt>
        <trkpt lat="28.5138456" lon="105.1370498"><ele>502.13</ele><time>2026-04-12T01:27:00.000Z</time></trkpt>
        <trkpt lat="28.5138406" lon="105.1371568"><ele>503.43</ele><time>2026-04-12T01:27:08.000Z</time></trkpt>
        <trkpt lat="28.5138514" lon="105.1372653"><ele>503.85</ele><time>2026-04-12T01:27:16.000Z</time></trkpt>
        <trkpt lat="28.5138591" lon="105.137346"><ele>504.89</ele><time>2026-04-12T01:27:26.000Z</time></trkpt>
        <trkpt lat="28.5138714" lon="105.1374396"><ele>505.44</ele><time>2026-04-12T01:28:06.000Z</time></trkpt>
        <trkpt lat="28.5139069" lon="105.1375444"><ele>505.97</ele><time>2026-04-12T01:28:16.000Z</time></trkpt>
        <trkpt lat="28.5139794" lon="105.1376338"><ele>505.69</ele><time>2026-04-12T01:28:26.000Z</time></trkpt>
        <trkpt lat="28.514071" lon="105.1376806"><ele>504.9</ele><time>2026-04-12T01:28:36.000Z</time></trkpt>
        <trkpt lat="28.5141802" lon="105.1377014"><ele>503.38</ele><time>2026-04-12T01:28:46.000Z</time></trkpt>
        <trkpt lat="28.5142829" lon="105.1377142"><ele>502.28</ele><time>2026-04-12T01:28:54.000Z</time></trkpt>
        <trkpt lat="28.5143909" lon="105.1376883"><ele>502.13</ele><time>2026-04-12T01:29:04.000Z</time></trkpt>
        <trkpt lat="28.5144843" lon="105.1376237"><ele>501.77</ele><time>2026-04-12T01:29:14.000Z</time></trkpt>
        <trkpt lat="28.5145517" lon="105.1375328"><ele>501.94</ele><time>2026-04-12T01:29:28.000Z</time></trkpt>
        <trkpt lat="28.5146168" lon="105.1374425"><ele>502.83</ele><time>2026-04-12T01:29:36.000Z</time></trkpt>
        <trkpt lat="28.5146738" lon="105.137356"><ele>503.66</ele><time>2026-04-12T01:29:44.000Z</time></trkpt>
        <trkpt lat="28.5146764" lon="105.1372757"><ele>502.76</ele><time>2026-04-12T01:29:52.000Z</time></trkpt>
        <trkpt lat="28.5146369" lon="105.1373315"><ele>500.7</ele><time>2026-04-12T01:30:04.000Z</time></trkpt>
        <trkpt lat="28.514653" lon="105.1372841"><ele>501.34</ele><time>2026-04-12T01:30:26.000Z</time></trkpt>
        <trkpt lat="28.5147212" lon="105.1372361"><ele>501.71</ele><time>2026-04-12T01:30:34.000Z</time></trkpt>
        <trkpt lat="28.5147885" lon="105.1371386"><ele>502.23</ele><time>2026-04-12T01:30:44.000Z</time></trkpt>
        <trkpt lat="28.5148714" lon="105.1370723"><ele>500.57</ele><time>2026-04-12T01:30:50.000Z</time></trkpt>
        <trkpt lat="28.5149673" lon="105.1370369"><ele>500.16</ele><time>2026-04-12T01:30:58.000Z</time></trkpt>
        <trkpt lat="28.5150093" lon="105.1370448"><ele>499.8</ele><time>2026-04-12T01:31:02.000Z</time></trkpt>
        <trkpt lat="28.5150819" lon="105.1370795"><ele>500.1</ele><time>2026-04-12T01:31:14.000Z</time></trkpt>
        <trkpt lat="28.5150735" lon="105.1370946"><ele>499.79</ele><time>2026-04-12T01:31:16.000Z</time></trkpt>
        <trkpt lat="28.5149998" lon="105.1370601"><ele>499.93</ele><time>2026-04-12T01:32:00.000Z</time></trkpt>
        <trkpt lat="28.5149327" lon="105.1371168"><ele>502.68</ele><time>2026-04-12T01:32:16.000Z</time></trkpt>
        <trkpt lat="28.5148986" lon="105.1372308"><ele>500.59</ele><time>2026-04-12T01:32:24.000Z</time></trkpt>
        <trkpt lat="28.5148979" lon="105.1373477"><ele>498.89</ele><time>2026-04-12T01:32:30.000Z</time></trkpt>
        <trkpt lat="28.5149178" lon="105.1374765"><ele>497.78</ele><time>2026-04-12T01:32:38.000Z</time></trkpt>
        <trkpt lat="28.5149689" lon="105.137617"><ele>497.11</ele><time>2026-04-12T01:32:46.000Z</time></trkpt>
        <trkpt lat="28.5150058" lon="105.1377426"><ele>496.92</ele><time>2026-04-12T01:32:52.000Z</time></trkpt>
        <trkpt lat="28.5150402" lon="105.1378637"><ele>498.58</ele><time>2026-04-12T01:33:00.000Z</time></trkpt>
        <trkpt lat="28.5150791" lon="105.1379813"><ele>500.6</ele><time>2026-04-12T01:33:08.000Z</time></trkpt>
        <trkpt lat="28.5151292" lon="105.1380825"><ele>501.64</ele><time>2026-04-12T01:33:16.000Z</time></trkpt>
        <trkpt lat="28.5151783" lon="105.1381769"><ele>502.48</ele><time>2026-04-12T01:33:24.000Z</time></trkpt>
        <trkpt lat="28.5152565" lon="105.1382424"><ele>504.72</ele><time>2026-04-12T01:33:32.000Z</time></trkpt>
        <trkpt lat="28.5153504" lon="105.1382483"><ele>506.37</ele><time>2026-04-12T01:33:40.000Z</time></trkpt>
        <trkpt lat="28.5154425" lon="105.1382179"><ele>506.87</ele><time>2026-04-12T01:33:48.000Z</time></trkpt>
        <trkpt lat="28.5155257" lon="105.1381513"><ele>506.1</ele><time>2026-04-12T01:33:56.000Z</time></trkpt>
        <trkpt lat="28.5156084" lon="105.1380941"><ele>505.37</ele><time>2026-04-12T01:34:04.000Z</time></trkpt>
        <trkpt lat="28.5156923" lon="105.1381293"><ele>504.93</ele><time>2026-04-12T01:34:18.000Z</time></trkpt>
        <trkpt lat="28.5157203" lon="105.138235"><ele>504.46</ele><time>2026-04-12T01:34:26.000Z</time></trkpt>
        <trkpt lat="28.5157067" lon="105.1383551"><ele>506.75</ele><time>2026-04-12T01:34:34.000Z</time></trkpt>
        <trkpt lat="28.5156957" lon="105.1384739"><ele>507.55</ele><time>2026-04-12T01:34:48.000Z</time></trkpt>
        <trkpt lat="28.5157004" lon="105.1385889"><ele>505.92</ele><time>2026-04-12T01:34:56.000Z</time></trkpt>
        <trkpt lat="28.5157059" lon="105.1387084"><ele>504.98</ele><time>2026-04-12T01:35:12.000Z</time></trkpt>
        <trkpt lat="28.515699" lon="105.1388184"><ele>504.35</ele><time>2026-04-12T01:35:20.000Z</time></trkpt>
        <trkpt lat="28.5157029" lon="105.1389269"><ele>504.74</ele><time>2026-04-12T01:35:30.000Z</time></trkpt>
        <trkpt lat="28.5157705" lon="105.1389958"><ele>504.72</ele><time>2026-04-12T01:35:44.000Z</time></trkpt>
        <trkpt lat="28.5158758" lon="105.1390271"><ele>506.04</ele><time>2026-04-12T01:35:56.000Z</time></trkpt>
        <trkpt lat="28.5159149" lon="105.1390283"><ele>506.78</ele><time>2026-04-12T01:35:58.000Z</time></trkpt>
        <trkpt lat="28.5159935" lon="105.138993"><ele>507.19</ele><time>2026-04-12T01:36:08.000Z</time></trkpt>
        <trkpt lat="28.5160201" lon="105.1389772"><ele>507.38</ele><time>2026-04-12T01:36:12.000Z</time></trkpt>
        <trkpt lat="28.5160793" lon="105.1389236"><ele>507.86</ele><time>2026-04-12T01:36:32.000Z</time></trkpt>
        <trkpt lat="28.516151" lon="105.1388544"><ele>507.8</ele><time>2026-04-12T01:36:40.000Z</time></trkpt>
        <trkpt lat="28.5162481" lon="105.1387872"><ele>507.31</ele><time>2026-04-12T01:36:50.000Z</time></trkpt>
        <trkpt lat="28.5163321" lon="105.1387173"><ele>507.19</ele><time>2026-04-12T01:36:58.000Z</time></trkpt>
        <trkpt lat="28.5164165" lon="105.1386438"><ele>505.79</ele><time>2026-04-12T01:37:10.000Z</time></trkpt>
        <trkpt lat="28.5164934" lon="105.1385496"><ele>503.21</ele><time>2026-04-12T01:37:20.000Z</time></trkpt>
        <trkpt lat="28.5165763" lon="105.1384679"><ele>501.3</ele><time>2026-04-12T01:37:30.000Z</time></trkpt>
        <trkpt lat="28.5166798" lon="105.1384634"><ele>498.42</ele><time>2026-04-12T01:37:38.000Z</time></trkpt>
        <trkpt lat="28.5167159" lon="105.1385596"><ele>498.98</ele><time>2026-04-12T01:37:50.000Z</time></trkpt>
        <trkpt lat="28.5167366" lon="105.1386849"><ele>500.71</ele><time>2026-04-12T01:38:00.000Z</time></trkpt>
        <trkpt lat="28.516771" lon="105.1388057"><ele>502.74</ele><time>2026-04-12T01:38:12.000Z</time></trkpt>
        <trkpt lat="28.5168297" lon="105.1388951"><ele>504.58</ele><time>2026-04-12T01:38:28.000Z</time></trkpt>
        <trkpt lat="28.5169231" lon="105.1389163"><ele>505.18</ele><time>2026-04-12T01:38:39.000Z</time></trkpt>
        <trkpt lat="28.5170238" lon="105.1388793"><ele>505.8</ele><time>2026-04-12T01:38:48.000Z</time></trkpt>
        <trkpt lat="28.5171232" lon="105.1388237"><ele>506.55</ele><time>2026-04-12T01:38:58.000Z</time></trkpt>
        <trkpt lat="28.5172176" lon="105.1388503"><ele>506.59</ele><time>2026-04-12T01:39:08.000Z</time></trkpt>
        <trkpt lat="28.5172408" lon="105.1389508"><ele>507.5</ele><time>2026-04-12T01:39:17.000Z</time></trkpt>
        <trkpt lat="28.5172133" lon="105.1390784"><ele>508.49</ele><time>2026-04-12T01:39:26.000Z</time></trkpt>
        <trkpt lat="28.5171683" lon="105.1391599"><ele>509.41</ele><time>2026-04-12T01:39:34.000Z</time></trkpt>
        <trkpt lat="28.5171459" lon="105.1392696"><ele>508.47</ele><time>2026-04-12T01:39:56.000Z</time></trkpt>
        <trkpt lat="28.5171289" lon="105.1393873"><ele>508.82</ele><time>2026-04-12T01:40:04.000Z</time></trkpt>
        <trkpt lat="28.5171308" lon="105.139505"><ele>509.82</ele><time>2026-04-12T01:40:12.000Z</time></trkpt>
        <trkpt lat="28.5171418" lon="105.1396127"><ele>510.18</ele><time>2026-04-12T01:40:24.000Z</time></trkpt>
        <trkpt lat="28.5171911" lon="105.1397032"><ele>511.55</ele><time>2026-04-12T01:40:34.000Z</time></trkpt>
        <trkpt lat="28.5172904" lon="105.1397604"><ele>512.6</ele><time>2026-04-12T01:40:44.000Z</time></trkpt>
        <trkpt lat="28.5173908" lon="105.1397943"><ele>512.6</ele><time>2026-04-12T01:40:52.000Z</time></trkpt>
        <trkpt lat="28.5174878" lon="105.1397591"><ele>514.61</ele><time>2026-04-12T01:41:04.000Z</time></trkpt>
        <trkpt lat="28.5175826" lon="105.1397008"><ele>516.17</ele><time>2026-04-12T01:41:18.000Z</time></trkpt>
        <trkpt lat="28.5176823" lon="105.1396543"><ele>515.83</ele><time>2026-04-12T01:41:28.000Z</time></trkpt>
        <trkpt lat="28.5177717" lon="105.1396045"><ele>514.48</ele><time>2026-04-12T01:41:36.000Z</time></trkpt>
        <trkpt lat="28.5178531" lon="105.1395542"><ele>513.31</ele><time>2026-04-12T01:41:44.000Z</time></trkpt>
        <trkpt lat="28.5179485" lon="105.1395279"><ele>513.17</ele><time>2026-04-12T01:41:54.000Z</time></trkpt>
        <trkpt lat="28.5180294" lon="105.1395884"><ele>512.48</ele><time>2026-04-12T01:42:02.000Z</time></trkpt>
        <trkpt lat="28.5180865" lon="105.1396839"><ele>512.55</ele><time>2026-04-12T01:42:16.000Z</time></trkpt>
        <trkpt lat="28.5181465" lon="105.1397897"><ele>512.32</ele><time>2026-04-12T01:42:28.000Z</time></trkpt>
        <trkpt lat="28.5182284" lon="105.1398468"><ele>513.76</ele><time>2026-04-12T01:42:38.000Z</time></trkpt>
        <trkpt lat="28.5183326" lon="105.1398574"><ele>514.39</ele><time>2026-04-12T01:42:50.000Z</time></trkpt>
        <trkpt lat="28.5184312" lon="105.1398404"><ele>514.07</ele><time>2026-04-12T01:42:58.000Z</time></trkpt>
        <trkpt lat="28.5185282" lon="105.1398271"><ele>513.38</ele><time>2026-04-12T01:43:06.000Z</time></trkpt>
        <trkpt lat="28.5186342" lon="105.1398299"><ele>512.68</ele><time>2026-04-12T01:43:14.000Z</time></trkpt>
        <trkpt lat="28.5187329" lon="105.139832"><ele>512.88</ele><time>2026-04-12T01:43:22.000Z</time></trkpt>
        <trkpt lat="28.5188312" lon="105.1398022"><ele>512.92</ele><time>2026-04-12T01:43:32.000Z</time></trkpt>
        <trkpt lat="28.5188996" lon="105.1398639"><ele>513.47</ele><time>2026-04-12T01:43:44.000Z</time></trkpt>
        <trkpt lat="28.5188738" lon="105.1399646"><ele>513.3</ele><time>2026-04-12T01:43:54.000Z</time></trkpt>
        <trkpt lat="28.5188104" lon="105.1400699"><ele>512.95</ele><time>2026-04-12T01:44:04.000Z</time></trkpt>
        <trkpt lat="28.5187962" lon="105.1401205"><ele>513.12</ele><time>2026-04-12T01:44:12.000Z</time></trkpt>
        <trkpt lat="28.5187664" lon="105.1402176"><ele>511.99</ele><time>2026-04-12T01:44:24.000Z</time></trkpt>
        <trkpt lat="28.5187404" lon="105.1403209"><ele>510.36</ele><time>2026-04-12T01:44:32.000Z</time></trkpt>
        <trkpt lat="28.5187414" lon="105.1404338"><ele>508.99</ele><time>2026-04-12T01:44:40.000Z</time></trkpt>
        <trkpt lat="28.518762" lon="105.1404859"><ele>508.97</ele><time>2026-04-12T01:44:44.000Z</time></trkpt>
        <trkpt lat="28.5187587" lon="105.1405835"><ele>508.95</ele><time>2026-04-12T01:44:56.000Z</time></trkpt>
        <trkpt lat="28.518703" lon="105.1406632"><ele>511.04</ele><time>2026-04-12T01:45:08.000Z</time></trkpt>
        <trkpt lat="28.5186065" lon="105.1406599"><ele>512.38</ele><time>2026-04-12T01:45:28.000Z</time></trkpt>
        <trkpt lat="28.5185015" lon="105.1406188"><ele>513.15</ele><time>2026-04-12T01:45:38.000Z</time></trkpt>
        <trkpt lat="28.5183947" lon="105.1405918"><ele>514</ele><time>2026-04-12T01:45:58.000Z</time></trkpt>
        <trkpt lat="28.5182956" lon="105.1405682"><ele>518.08</ele><time>2026-04-12T01:46:08.000Z</time></trkpt>
        <trkpt lat="28.5181831" lon="105.1405846"><ele>521.9</ele><time>2026-04-12T01:46:16.000Z</time></trkpt>
        <trkpt lat="28.5180895" lon="105.140632"><ele>525.29</ele><time>2026-04-12T01:46:24.000Z</time></trkpt>
        <trkpt lat="28.5180097" lon="105.1406982"><ele>526.64</ele><time>2026-04-12T01:46:32.000Z</time></trkpt>
        <trkpt lat="28.517935" lon="105.1407731"><ele>527.3</ele><time>2026-04-12T01:46:40.000Z</time></trkpt>
        <trkpt lat="28.5178834" lon="105.1408669"><ele>527.35</ele><time>2026-04-12T01:46:48.000Z</time></trkpt>
        <trkpt lat="28.5178521" lon="105.1409684"><ele>526.28</ele><time>2026-04-12T01:46:56.000Z</time></trkpt>
        <trkpt lat="28.517861" lon="105.1410307"><ele>524.72</ele><time>2026-04-12T01:47:02.000Z</time></trkpt>
        <trkpt lat="28.5178962" lon="105.1411274"><ele>522.94</ele><time>2026-04-12T01:47:12.000Z</time></trkpt>
        <trkpt lat="28.5179442" lon="105.1412367"><ele>521.29</ele><time>2026-04-12T01:47:22.000Z</time></trkpt>
        <trkpt lat="28.5180084" lon="105.1413327"><ele>519.09</ele><time>2026-04-12T01:47:32.000Z</time></trkpt>
        <trkpt lat="28.5180583" lon="105.1414371"><ele>516.99</ele><time>2026-04-12T01:47:40.000Z</time></trkpt>
        <trkpt lat="28.5180537" lon="105.1415542"><ele>514.37</ele><time>2026-04-12T01:47:48.000Z</time></trkpt>
        <trkpt lat="28.5179666" lon="105.1416001"><ele>513.39</ele><time>2026-04-12T01:47:58.000Z</time></trkpt>
        <trkpt lat="28.5178507" lon="105.1416053"><ele>514.42</ele><time>2026-04-12T01:48:08.000Z</time></trkpt>
        <trkpt lat="28.5178069" lon="105.1416199"><ele>515.9</ele><time>2026-04-12T01:48:12.000Z</time></trkpt>
        <trkpt lat="28.5177345" lon="105.1415897"><ele>516.2</ele><time>2026-04-12T01:48:24.000Z</time></trkpt>
        <trkpt lat="28.5176508" lon="105.1415508"><ele>519.02</ele><time>2026-04-12T01:48:32.000Z</time></trkpt>
        <trkpt lat="28.5176281" lon="105.1415335"><ele>521.6</ele><time>2026-04-12T01:48:38.000Z</time></trkpt>
        <trkpt lat="28.5175554" lon="105.141496"><ele>520.31</ele><time>2026-04-12T01:48:48.000Z</time></trkpt>
        <trkpt lat="28.5174629" lon="105.1414823"><ele>521.21</ele><time>2026-04-12T01:48:58.000Z</time></trkpt>
        <trkpt lat="28.5173701" lon="105.1414992"><ele>522.54</ele><time>2026-04-12T01:49:10.000Z</time></trkpt>
        <trkpt lat="28.517273" lon="105.1415199"><ele>524.68</ele><time>2026-04-12T01:49:20.000Z</time></trkpt>
        <trkpt lat="28.5171761" lon="105.1415396"><ele>525.51</ele><time>2026-04-12T01:49:42.000Z</time></trkpt>
        <trkpt lat="28.5171215" lon="105.1416077"><ele>526.56</ele><time>2026-04-12T01:50:06.000Z</time></trkpt>
        <trkpt lat="28.5170982" lon="105.1417148"><ele>527.41</ele><time>2026-04-12T01:50:24.000Z</time></trkpt>
        <trkpt lat="28.5171051" lon="105.1418259"><ele>526.87</ele><time>2026-04-12T01:50:32.000Z</time></trkpt>
        <trkpt lat="28.517109" lon="105.1419086"><ele>526.41</ele><time>2026-04-12T01:50:42.000Z</time></trkpt>
        <trkpt lat="28.5171694" lon="105.1419931"><ele>525.79</ele><time>2026-04-12T01:50:54.000Z</time></trkpt>
        <trkpt lat="28.5172592" lon="105.1420376"><ele>524.77</ele><time>2026-04-12T01:51:04.000Z</time></trkpt>
        <trkpt lat="28.5173525" lon="105.1420716"><ele>521.96</ele><time>2026-04-12T01:51:12.000Z</time></trkpt>
        <trkpt lat="28.5174436" lon="105.1421321"><ele>520.15</ele><time>2026-04-12T01:51:22.000Z</time></trkpt>
        <trkpt lat="28.5175375" lon="105.1421943"><ele>517.06</ele><time>2026-04-12T01:51:32.000Z</time></trkpt>
        <trkpt lat="28.5176275" lon="105.1422509"><ele>514.81</ele><time>2026-04-12T01:51:42.000Z</time></trkpt>
        <trkpt lat="28.517706" lon="105.1423235"><ele>513.51</ele><time>2026-04-12T01:51:52.000Z</time></trkpt>
        <trkpt lat="28.5177048" lon="105.1424304"><ele>514.23</ele><time>2026-04-12T01:52:00.000Z</time></trkpt>
        <trkpt lat="28.5176502" lon="105.1425307"><ele>513.99</ele><time>2026-04-12T01:52:08.000Z</time></trkpt>
        <trkpt lat="28.5175626" lon="105.1425924"><ele>515.42</ele><time>2026-04-12T01:52:16.000Z</time></trkpt>
        <trkpt lat="28.5174562" lon="105.1426226"><ele>517.75</ele><time>2026-04-12T01:52:26.000Z</time></trkpt>
        <trkpt lat="28.5174228" lon="105.1426233"><ele>520.61</ele><time>2026-04-12T01:52:28.000Z</time></trkpt>
        <trkpt lat="28.5173448" lon="105.1426452"><ele>522.22</ele><time>2026-04-12T01:52:42.000Z</time></trkpt>
        <trkpt lat="28.5172728" lon="105.1427174"><ele>523.44</ele><time>2026-04-12T01:52:52.000Z</time></trkpt>
        <trkpt lat="28.5172163" lon="105.1428045"><ele>522.67</ele><time>2026-04-12T01:53:00.000Z</time></trkpt>
        <trkpt lat="28.5171529" lon="105.1428934"><ele>521.77</ele><time>2026-04-12T01:53:10.000Z</time></trkpt>
        <trkpt lat="28.5171033" lon="105.1429862"><ele>521.07</ele><time>2026-04-12T01:53:20.000Z</time></trkpt>
        <trkpt lat="28.5170768" lon="105.1430984"><ele>519.75</ele><time>2026-04-12T01:53:30.000Z</time></trkpt>
        <trkpt lat="28.5171082" lon="105.1432117"><ele>518.45</ele><time>2026-04-12T01:53:42.000Z</time></trkpt>
        <trkpt lat="28.517165" lon="105.1433052"><ele>517.59</ele><time>2026-04-12T01:53:52.000Z</time></trkpt>
        <trkpt lat="28.5172291" lon="105.1433898"><ele>516.44</ele><time>2026-04-12T01:54:02.000Z</time></trkpt>
        <trkpt lat="28.5173134" lon="105.1434547"><ele>514</ele><time>2026-04-12T01:54:12.000Z</time></trkpt>
        <trkpt lat="28.5174145" lon="105.1434765"><ele>511.81</ele><time>2026-04-12T01:54:22.000Z</time></trkpt>
        <trkpt lat="28.5175012" lon="105.1435249"><ele>509.56</ele><time>2026-04-12T01:54:30.000Z</time></trkpt>
        <trkpt lat="28.5175459" lon="105.1436238"><ele>507.54</ele><time>2026-04-12T01:54:40.000Z</time></trkpt>
        <trkpt lat="28.5175413" lon="105.1436992"><ele>505.66</ele><time>2026-04-12T01:54:48.000Z</time></trkpt>
        <trkpt lat="28.517487" lon="105.1437785"><ele>507.23</ele><time>2026-04-12T01:55:20.000Z</time></trkpt>
        <trkpt lat="28.5174059" lon="105.1438424"><ele>512.71</ele><time>2026-04-12T01:55:28.000Z</time></trkpt>
        <trkpt lat="28.5173078" lon="105.143903"><ele>514.88</ele><time>2026-04-12T01:55:38.000Z</time></trkpt>
        <trkpt lat="28.5172223" lon="105.1439726"><ele>516.61</ele><time>2026-04-12T01:55:46.000Z</time></trkpt>
        <trkpt lat="28.5171306" lon="105.1440469"><ele>515.61</ele><time>2026-04-12T01:55:54.000Z</time></trkpt>
        <trkpt lat="28.5170527" lon="105.1441215"><ele>515.54</ele><time>2026-04-12T01:56:02.000Z</time></trkpt>
        <trkpt lat="28.5169714" lon="105.1441915"><ele>514.2</ele><time>2026-04-12T01:56:12.000Z</time></trkpt>
        <trkpt lat="28.5168729" lon="105.1442126"><ele>513.84</ele><time>2026-04-12T01:56:22.000Z</time></trkpt>
        <trkpt lat="28.5167694" lon="105.1441738"><ele>512.14</ele><time>2026-04-12T01:56:32.000Z</time></trkpt>
        <trkpt lat="28.5166596" lon="105.1441433"><ele>512.94</ele><time>2026-04-12T01:56:42.000Z</time></trkpt>
        <trkpt lat="28.5165591" lon="105.1441513"><ele>513.73</ele><time>2026-04-12T01:56:52.000Z</time></trkpt>
        <trkpt lat="28.5164652" lon="105.1441928"><ele>513.73</ele><time>2026-04-12T01:57:02.000Z</time></trkpt>
        <trkpt lat="28.5163894" lon="105.1442629"><ele>512.45</ele><time>2026-04-12T01:57:12.000Z</time></trkpt>
        <trkpt lat="28.5163198" lon="105.1443403"><ele>510.87</ele><time>2026-04-12T01:57:20.000Z</time></trkpt>
        <trkpt lat="28.5162618" lon="105.1444399"><ele>510.88</ele><time>2026-04-12T01:57:32.000Z</time></trkpt>
        <trkpt lat="28.5162862" lon="105.1445114"><ele>510.45</ele><time>2026-04-12T01:57:42.000Z</time></trkpt>
        <trkpt lat="28.516356" lon="105.1445788"><ele>508.79</ele><time>2026-04-12T01:58:28.000Z</time></trkpt>
        <trkpt lat="28.5164049" lon="105.1445169"><ele>505</ele><time>2026-04-12T01:58:58.000Z</time></trkpt>
        <trkpt lat="28.5164904" lon="105.1444957"><ele>505.49</ele><time>2026-04-12T01:59:50.000Z</time></trkpt>
        <trkpt lat="28.5164468" lon="105.1445638"><ele>505.2</ele><time>2026-04-12T02:01:07.000Z</time></trkpt>
        <trkpt lat="28.5165177" lon="105.1448419"><ele>505.36</ele><time>2026-04-12T02:02:51.000Z</time></trkpt>
        <trkpt lat="28.5164744" lon="105.144745"><ele>502.22</ele><time>2026-04-12T02:03:10.000Z</time></trkpt>
        <trkpt lat="28.5163795" lon="105.1447128"><ele>500.62</ele><time>2026-04-12T02:03:20.000Z</time></trkpt>
        <trkpt lat="28.5162833" lon="105.1446745"><ele>499</ele><time>2026-04-12T02:03:28.000Z</time></trkpt>
        <trkpt lat="28.5162016" lon="105.1446715"><ele>497.98</ele><time>2026-04-12T02:03:38.000Z</time></trkpt>
        <trkpt lat="28.5161137" lon="105.1446667"><ele>496.75</ele><time>2026-04-12T02:03:48.000Z</time></trkpt>
        <trkpt lat="28.5160295" lon="105.1447132"><ele>497.01</ele><time>2026-04-12T02:04:02.000Z</time></trkpt>
        <trkpt lat="28.5159311" lon="105.1447338"><ele>496.53</ele><time>2026-04-12T02:04:12.000Z</time></trkpt>
        <trkpt lat="28.5158351" lon="105.1447587"><ele>495.45</ele><time>2026-04-12T02:04:20.000Z</time></trkpt>
        <trkpt lat="28.5157333" lon="105.1447631"><ele>493.75</ele><time>2026-04-12T02:04:28.000Z</time></trkpt>
        <trkpt lat="28.5156395" lon="105.1447798"><ele>491.84</ele><time>2026-04-12T02:04:36.000Z</time></trkpt>
        <trkpt lat="28.5155422" lon="105.1447542"><ele>490.61</ele><time>2026-04-12T02:04:46.000Z</time></trkpt>
        <trkpt lat="28.5154389" lon="105.1447303"><ele>489.18</ele><time>2026-04-12T02:04:54.000Z</time></trkpt>
        <trkpt lat="28.5153356" lon="105.1446926"><ele>487.31</ele><time>2026-04-12T02:05:02.000Z</time></trkpt>
        <trkpt lat="28.5152409" lon="105.1446534"><ele>485.7</ele><time>2026-04-12T02:05:10.000Z</time></trkpt>
        <trkpt lat="28.5151484" lon="105.144641"><ele>485.62</ele><time>2026-04-12T02:05:22.000Z</time></trkpt>
        <trkpt lat="28.5150642" lon="105.1446056"><ele>483.08</ele><time>2026-04-12T02:05:38.000Z</time></trkpt>
        <trkpt lat="28.5149674" lon="105.144618"><ele>480.23</ele><time>2026-04-12T02:05:50.000Z</time></trkpt>
        <trkpt lat="28.5148784" lon="105.1445808"><ele>477.86</ele><time>2026-04-12T02:06:16.000Z</time></trkpt>
        <trkpt lat="28.5148397" lon="105.1446436"><ele>472.7</ele><time>2026-04-12T02:06:26.000Z</time></trkpt>
        <trkpt lat="28.5148409" lon="105.1446546"><ele>468.89</ele><time>2026-04-12T02:06:28.000Z</time></trkpt>
        <trkpt lat="28.5147712" lon="105.1446519"><ele>466.31</ele><time>2026-04-12T02:07:20.000Z</time></trkpt>
        <trkpt lat="28.5146691" lon="105.1446573"><ele>462.26</ele><time>2026-04-12T02:07:30.000Z</time></trkpt>
        <trkpt lat="28.514571" lon="105.1446394"><ele>457.9</ele><time>2026-04-12T02:07:38.000Z</time></trkpt>
        <trkpt lat="28.5144626" lon="105.1446038"><ele>455.58</ele><time>2026-04-12T02:07:48.000Z</time></trkpt>
        <trkpt lat="28.514362" lon="105.1445758"><ele>458.66</ele><time>2026-04-12T02:08:10.000Z</time></trkpt>
        <trkpt lat="28.5143161" lon="105.1445475"><ele>451.18</ele><time>2026-04-12T02:08:20.000Z</time></trkpt>
        <trkpt lat="28.5143633" lon="105.1444847"><ele>444.98</ele><time>2026-04-12T02:08:40.000Z</time></trkpt>
        <trkpt lat="28.5144401" lon="105.1444096"><ele>437.67</ele><time>2026-04-12T02:08:50.000Z</time></trkpt>
        <trkpt lat="28.5145052" lon="105.1443076"><ele>432.52</ele><time>2026-04-12T02:09:00.000Z</time></trkpt>
        <trkpt lat="28.5145419" lon="105.1442466"><ele>429.06</ele><time>2026-04-12T02:09:06.000Z</time></trkpt>
        <trkpt lat="28.5146287" lon="105.1442299"><ele>425.72</ele><time>2026-04-12T02:09:24.000Z</time></trkpt>
        <trkpt lat="28.5147144" lon="105.1441923"><ele>423.1</ele><time>2026-04-12T02:09:35.000Z</time></trkpt>
        <trkpt lat="28.514726" lon="105.1441742"><ele>421.79</ele><time>2026-04-12T02:09:36.000Z</time></trkpt>
        <trkpt lat="28.5148076" lon="105.1441425"><ele>420.47</ele><time>2026-04-12T02:09:52.000Z</time></trkpt>
        <trkpt lat="28.5147737" lon="105.1440784"><ele>418.86</ele><time>2026-04-12T02:10:06.000Z</time></trkpt>
        <trkpt lat="28.5147622" lon="105.1440466"><ele>414.86</ele><time>2026-04-12T02:10:10.000Z</time></trkpt>
        <trkpt lat="28.5146825" lon="105.1440498"><ele>413.92</ele><time>2026-04-12T02:10:20.000Z</time></trkpt>
        <trkpt lat="28.5145844" lon="105.144041"><ele>416.7</ele><time>2026-04-12T02:10:30.000Z</time></trkpt>
        <trkpt lat="28.514481" lon="105.1440216"><ele>421.13</ele><time>2026-04-12T02:10:38.000Z</time></trkpt>
        <trkpt lat="28.5143749" lon="105.1439894"><ele>425.88</ele><time>2026-04-12T02:10:50.000Z</time></trkpt>
        <trkpt lat="28.5142744" lon="105.1439713"><ele>427.71</ele><time>2026-04-12T02:11:00.000Z</time></trkpt>
        <trkpt lat="28.5141819" lon="105.1439519"><ele>428.98</ele><time>2026-04-12T02:11:14.000Z</time></trkpt>
        <trkpt lat="28.514096" lon="105.1439122"><ele>429.78</ele><time>2026-04-12T02:11:24.000Z</time></trkpt>
        <trkpt lat="28.5140066" lon="105.1438983"><ele>429.56</ele><time>2026-04-12T02:11:38.000Z</time></trkpt>
        <trkpt lat="28.5139172" lon="105.1439224"><ele>426.8</ele><time>2026-04-12T02:12:00.000Z</time></trkpt>
        <trkpt lat="28.5138264" lon="105.1439688"><ele>422.8</ele><time>2026-04-12T02:12:24.000Z</time></trkpt>
        <trkpt lat="28.5137338" lon="105.1440024"><ele>419.07</ele><time>2026-04-12T02:12:36.000Z</time></trkpt>
        <trkpt lat="28.5136443" lon="105.1439861"><ele>415.49</ele><time>2026-04-12T02:12:46.000Z</time></trkpt>
        <trkpt lat="28.5135503" lon="105.1439646"><ele>411.68</ele><time>2026-04-12T02:12:54.000Z</time></trkpt>
        <trkpt lat="28.5134895" lon="105.143954"><ele>407.34</ele><time>2026-04-12T02:13:02.000Z</time></trkpt>
        <trkpt lat="28.5134096" lon="105.1439718"><ele>403.93</ele><time>2026-04-12T02:13:18.000Z</time></trkpt>
        <trkpt lat="28.5133165" lon="105.1439948"><ele>400.44</ele><time>2026-04-12T02:13:28.000Z</time></trkpt>
        <trkpt lat="28.5132164" lon="105.1440332"><ele>396.57</ele><time>2026-04-12T02:13:40.000Z</time></trkpt>
        <trkpt lat="28.5131328" lon="105.1441007"><ele>391.91</ele><time>2026-04-12T02:13:50.000Z</time></trkpt>
        <trkpt lat="28.5130337" lon="105.1441284"><ele>387.89</ele><time>2026-04-12T02:14:02.000Z</time></trkpt>
        <trkpt lat="28.5129845" lon="105.1441376"><ele>383.77</ele><time>2026-04-12T02:14:08.000Z</time></trkpt>
        <trkpt lat="28.5129246" lon="105.1440876"><ele>381.88</ele><time>2026-04-12T02:14:18.000Z</time></trkpt>
        <trkpt lat="28.5128873" lon="105.1439771"><ele>380.17</ele><time>2026-04-12T02:14:30.000Z</time></trkpt>
        <trkpt lat="28.51286" lon="105.1438648"><ele>377.75</ele><time>2026-04-12T02:14:38.000Z</time></trkpt>
        <trkpt lat="28.512853" lon="105.1437495"><ele>375.28</ele><time>2026-04-12T02:14:50.000Z</time></trkpt>
        <trkpt lat="28.5129176" lon="105.1436578"><ele>373.09</ele><time>2026-04-12T02:15:08.000Z</time></trkpt>
        <trkpt lat="28.5129796" lon="105.1435589"><ele>372.12</ele><time>2026-04-12T02:15:18.000Z</time></trkpt>
        <trkpt lat="28.5129539" lon="105.1434727"><ele>371.27</ele><time>2026-04-12T02:15:24.000Z</time></trkpt>
        <trkpt lat="28.5128662" lon="105.1434516"><ele>370.17</ele><time>2026-04-12T02:15:30.000Z</time></trkpt>
        <trkpt lat="28.5127852" lon="105.1435166"><ele>369.82</ele><time>2026-04-12T02:15:38.000Z</time></trkpt>
        <trkpt lat="28.5127118" lon="105.1436052"><ele>369.6</ele><time>2026-04-12T02:15:44.000Z</time></trkpt>
        <trkpt lat="28.5126536" lon="105.1437146"><ele>370.72</ele><time>2026-04-12T02:15:54.000Z</time></trkpt>
        <trkpt lat="28.5125931" lon="105.1438256"><ele>370.81</ele><time>2026-04-12T02:16:02.000Z</time></trkpt>
        <trkpt lat="28.5125753" lon="105.1438505"><ele>370.93</ele><time>2026-04-12T02:16:04.000Z</time></trkpt>
        <trkpt lat="28.5125397" lon="105.1439218"><ele>369.65</ele><time>2026-04-12T02:16:14.000Z</time></trkpt>
        <trkpt lat="28.5125534" lon="105.1440308"><ele>368.66</ele><time>2026-04-12T02:16:22.000Z</time></trkpt>
        <trkpt lat="28.5125855" lon="105.1441487"><ele>366.01</ele><time>2026-04-12T02:16:30.000Z</time></trkpt>
        <trkpt lat="28.5126389" lon="105.1442668"><ele>364.25</ele><time>2026-04-12T02:16:38.000Z</time></trkpt>
        <trkpt lat="28.5126974" lon="105.1443732"><ele>365.17</ele><time>2026-04-12T02:16:46.000Z</time></trkpt>
        <trkpt lat="28.5127494" lon="105.1444828"><ele>365.4</ele><time>2026-04-12T02:16:56.000Z</time></trkpt>
        <trkpt lat="28.5127861" lon="105.1446022"><ele>364.55</ele><time>2026-04-12T02:17:06.000Z</time></trkpt>
        <trkpt lat="28.5127854" lon="105.144722"><ele>364.52</ele><time>2026-04-12T02:17:14.000Z</time></trkpt>
        <trkpt lat="28.5127598" lon="105.144826"><ele>364.81</ele><time>2026-04-12T02:17:22.000Z</time></trkpt>
        <trkpt lat="28.5127106" lon="105.1449155"><ele>365.16</ele><time>2026-04-12T02:17:30.000Z</time></trkpt>
        <trkpt lat="28.5126269" lon="105.1449761"><ele>365.72</ele><time>2026-04-12T02:17:42.000Z</time></trkpt>
        <trkpt lat="28.5125421" lon="105.1450577"><ele>366.67</ele><time>2026-04-12T02:17:52.000Z</time></trkpt>
        <trkpt lat="28.5124649" lon="105.1451367"><ele>366.44</ele><time>2026-04-12T02:18:00.000Z</time></trkpt>
        <trkpt lat="28.5123976" lon="105.1452117"><ele>367.11</ele><time>2026-04-12T02:18:08.000Z</time></trkpt>
        <trkpt lat="28.5123557" lon="105.1453175"><ele>367.02</ele><time>2026-04-12T02:18:16.000Z</time></trkpt>
        <trkpt lat="28.5123412" lon="105.1454321"><ele>366.53</ele><time>2026-04-12T02:18:24.000Z</time></trkpt>
        <trkpt lat="28.5123346" lon="105.145547"><ele>365.86</ele><time>2026-04-12T02:18:32.000Z</time></trkpt>
        <trkpt lat="28.5123214" lon="105.1456661"><ele>364.75</ele><time>2026-04-12T02:18:40.000Z</time></trkpt>
        <trkpt lat="28.5123085" lon="105.1457872"><ele>363.27</ele><time>2026-04-12T02:18:48.000Z</time></trkpt>
        <trkpt lat="28.5122831" lon="105.1458972"><ele>361.94</ele><time>2026-04-12T02:18:56.000Z</time></trkpt>
        <trkpt lat="28.5122437" lon="105.1460032"><ele>360.98</ele><time>2026-04-12T02:19:06.000Z</time></trkpt>
        <trkpt lat="28.5122071" lon="105.1461249"><ele>360.97</ele><time>2026-04-12T02:19:20.000Z</time></trkpt>
        <trkpt lat="28.5121529" lon="105.1462254"><ele>362.06</ele><time>2026-04-12T02:19:30.000Z</time></trkpt>
        <trkpt lat="28.5121082" lon="105.1463196"><ele>362.62</ele><time>2026-04-12T02:19:38.000Z</time></trkpt>
        <trkpt lat="28.5120756" lon="105.1464304"><ele>362.18</ele><time>2026-04-12T02:19:48.000Z</time></trkpt>
        <trkpt lat="28.5120622" lon="105.1465417"><ele>360.17</ele><time>2026-04-12T02:19:56.000Z</time></trkpt>
        <trkpt lat="28.5120432" lon="105.146648"><ele>358.04</ele><time>2026-04-12T02:20:04.000Z</time></trkpt>
        <trkpt lat="28.5120079" lon="105.1467496"><ele>356.47</ele><time>2026-04-12T02:20:14.000Z</time></trkpt>
        <trkpt lat="28.5119546" lon="105.1468462"><ele>355.29</ele><time>2026-04-12T02:20:22.000Z</time></trkpt>
        <trkpt lat="28.5119082" lon="105.1469426"><ele>355.15</ele><time>2026-04-12T02:20:30.000Z</time></trkpt>
        <trkpt lat="28.5118784" lon="105.1470561"><ele>355.49</ele><time>2026-04-12T02:20:40.000Z</time></trkpt>
        <trkpt lat="28.5118766" lon="105.1471721"><ele>356.08</ele><time>2026-04-12T02:20:48.000Z</time></trkpt>
        <trkpt lat="28.5118895" lon="105.1472873"><ele>355.35</ele><time>2026-04-12T02:20:56.000Z</time></trkpt>
        <trkpt lat="28.5119229" lon="105.1473904"><ele>353.95</ele><time>2026-04-12T02:21:04.000Z</time></trkpt>
        <trkpt lat="28.511979" lon="105.1474802"><ele>352.08</ele><time>2026-04-12T02:21:12.000Z</time></trkpt>
        <trkpt lat="28.5120161" lon="105.1475119"><ele>353.33</ele><time>2026-04-12T02:21:16.000Z</time></trkpt>
        <trkpt lat="28.5120543" lon="105.1475892"><ele>354.69</ele><time>2026-04-12T02:21:26.000Z</time></trkpt>
        <trkpt lat="28.512044" lon="105.147695"><ele>354.98</ele><time>2026-04-12T02:21:36.000Z</time></trkpt>
        <trkpt lat="28.5119889" lon="105.1478051"><ele>355.46</ele><time>2026-04-12T02:21:46.000Z</time></trkpt>
        <trkpt lat="28.5119197" lon="105.1478928"><ele>354.93</ele><time>2026-04-12T02:21:54.000Z</time></trkpt>
        <trkpt lat="28.5118314" lon="105.1479548"><ele>354.1</ele><time>2026-04-12T02:22:02.000Z</time></trkpt>
        <trkpt lat="28.5117381" lon="105.148023"><ele>355.96</ele><time>2026-04-12T02:22:12.000Z</time></trkpt>
        <trkpt lat="28.5117083" lon="105.1480597"><ele>358.13</ele><time>2026-04-12T02:22:16.000Z</time></trkpt>
        <trkpt lat="28.5116381" lon="105.1480819"><ele>358.65</ele><time>2026-04-12T02:22:46.000Z</time></trkpt>
        <trkpt lat="28.5115432" lon="105.1481223"><ele>357.7</ele><time>2026-04-12T02:22:54.000Z</time></trkpt>
        <trkpt lat="28.5114434" lon="105.1481472"><ele>357.25</ele><time>2026-04-12T02:23:02.000Z</time></trkpt>
        <trkpt lat="28.5113414" lon="105.1481727"><ele>355.98</ele><time>2026-04-12T02:23:10.000Z</time></trkpt>
        <trkpt lat="28.5112571" lon="105.1482278"><ele>354.38</ele><time>2026-04-12T02:23:18.000Z</time></trkpt>
        <trkpt lat="28.5111906" lon="105.1483099"><ele>352.86</ele><time>2026-04-12T02:23:26.000Z</time></trkpt>
        <trkpt lat="28.511138" lon="105.1484088"><ele>352.01</ele><time>2026-04-12T02:23:34.000Z</time></trkpt>
        <trkpt lat="28.5110964" lon="105.1485181"><ele>351.2</ele><time>2026-04-12T02:23:42.000Z</time></trkpt>
        <trkpt lat="28.5110826" lon="105.1486159"><ele>350.44</ele><time>2026-04-12T02:23:50.000Z</time></trkpt>
        <trkpt lat="28.5110755" lon="105.148719"><ele>350.19</ele><time>2026-04-12T02:24:04.000Z</time></trkpt>
        <trkpt lat="28.5111287" lon="105.1488247"><ele>350.36</ele><time>2026-04-12T02:24:14.000Z</time></trkpt>
        <trkpt lat="28.5111985" lon="105.1489198"><ele>350.16</ele><time>2026-04-12T02:24:22.000Z</time></trkpt>
        <trkpt lat="28.5112153" lon="105.1490223"><ele>350.82</ele><time>2026-04-12T02:24:30.000Z</time></trkpt>
        <trkpt lat="28.5112018" lon="105.1491283"><ele>351.52</ele><time>2026-04-12T02:24:38.000Z</time></trkpt>
        <trkpt lat="28.5111885" lon="105.1492363"><ele>353</ele><time>2026-04-12T02:24:46.000Z</time></trkpt>
        <trkpt lat="28.5111601" lon="105.149354"><ele>353.55</ele><time>2026-04-12T02:24:56.000Z</time></trkpt>
        <trkpt lat="28.5111527" lon="105.1494671"><ele>352.65</ele><time>2026-04-12T02:25:04.000Z</time></trkpt>
        <trkpt lat="28.5111437" lon="105.1495777"><ele>350.77</ele><time>2026-04-12T02:25:12.000Z</time></trkpt>
        <trkpt lat="28.5111179" lon="105.1496787"><ele>350.23</ele><time>2026-04-12T02:25:20.000Z</time></trkpt>
        <trkpt lat="28.5110529" lon="105.1497691"><ele>349.94</ele><time>2026-04-12T02:25:30.000Z</time></trkpt>
        <trkpt lat="28.5109553" lon="105.1498402"><ele>349.08</ele><time>2026-04-12T02:25:40.000Z</time></trkpt>
        <trkpt lat="28.5108523" lon="105.1498776"><ele>348.17</ele><time>2026-04-12T02:25:52.000Z</time></trkpt>
        <trkpt lat="28.5107796" lon="105.149962"><ele>346.93</ele><time>2026-04-12T02:26:02.000Z</time></trkpt>
        <trkpt lat="28.510768" lon="105.1499695"><ele>346.57</ele><time>2026-04-12T02:26:04.000Z</time></trkpt>
        <trkpt lat="28.5107967" lon="105.1500533"><ele>346.64</ele><time>2026-04-12T02:26:18.000Z</time></trkpt>
        <trkpt lat="28.5108339" lon="105.1501587"><ele>345.6</ele><time>2026-04-12T02:26:26.000Z</time></trkpt>
        <trkpt lat="28.5108761" lon="105.1502666"><ele>344.85</ele><time>2026-04-12T02:26:38.000Z</time></trkpt>
        <trkpt lat="28.5109067" lon="105.150383"><ele>344.4</ele><time>2026-04-12T02:26:50.000Z</time></trkpt>
        <trkpt lat="28.5109255" lon="105.1505029"><ele>345.51</ele><time>2026-04-12T02:27:02.000Z</time></trkpt>
        <trkpt lat="28.5109432" lon="105.1506116"><ele>347.04</ele><time>2026-04-12T02:27:12.000Z</time></trkpt>
        <trkpt lat="28.5109306" lon="105.1506848"><ele>347.76</ele><time>2026-04-12T02:27:20.000Z</time></trkpt>
        <trkpt lat="28.510901" lon="105.150774"><ele>348.37</ele><time>2026-04-12T02:27:30.000Z</time></trkpt>
        <trkpt lat="28.5108746" lon="105.1508748"><ele>350.36</ele><time>2026-04-12T02:27:38.000Z</time></trkpt>
        <trkpt lat="28.5108524" lon="105.1509921"><ele>351.14</ele><time>2026-04-12T02:27:48.000Z</time></trkpt>
        <trkpt lat="28.510839" lon="105.1511168"><ele>352.77</ele><time>2026-04-12T02:27:58.000Z</time></trkpt>
        <trkpt lat="28.5108468" lon="105.1512447"><ele>353.52</ele><time>2026-04-12T02:28:08.000Z</time></trkpt>
        <trkpt lat="28.510792" lon="105.1513363"><ele>352.62</ele><time>2026-04-12T02:28:18.000Z</time></trkpt>
        <trkpt lat="28.5107413" lon="105.1514281"><ele>352.47</ele><time>2026-04-12T02:28:28.000Z</time></trkpt>
        <trkpt lat="28.510642" lon="105.151464"><ele>353.03</ele><time>2026-04-12T02:28:38.000Z</time></trkpt>
        <trkpt lat="28.510551" lon="105.151504"><ele>356.05</ele><time>2026-04-12T02:28:46.000Z</time></trkpt>
        <trkpt lat="28.5104438" lon="105.1515248"><ele>358.78</ele><time>2026-04-12T02:29:00.000Z</time></trkpt>
        <trkpt lat="28.5103421" lon="105.1514828"><ele>359.2</ele><time>2026-04-12T02:29:10.000Z</time></trkpt>
        <trkpt lat="28.5102515" lon="105.1514349"><ele>358.78</ele><time>2026-04-12T02:29:18.000Z</time></trkpt>
        <trkpt lat="28.5101828" lon="105.1513983"><ele>356.35</ele><time>2026-04-12T02:29:26.000Z</time></trkpt>
        <trkpt lat="28.5100871" lon="105.1513855"><ele>355.59</ele><time>2026-04-12T02:29:36.000Z</time></trkpt>
        <trkpt lat="28.5100005" lon="105.151433"><ele>356.4</ele><time>2026-04-12T02:29:46.000Z</time></trkpt>
        <trkpt lat="28.5099088" lon="105.1514732"><ele>358</ele><time>2026-04-12T02:30:00.000Z</time></trkpt>
        <trkpt lat="28.5098101" lon="105.151474"><ele>358.02</ele><time>2026-04-12T02:30:10.000Z</time></trkpt>
        <trkpt lat="28.5097097" lon="105.1514711"><ele>358.65</ele><time>2026-04-12T02:30:22.000Z</time></trkpt>
        <trkpt lat="28.5083572" lon="105.1517088"><ele>358.85</ele><time>2026-04-12T02:33:29.000Z</time></trkpt>
        <trkpt lat="28.5083241" lon="105.1515838"><ele>358.73</ele><time>2026-04-12T02:33:45.000Z</time></trkpt>
        <trkpt lat="28.5083512" lon="105.1513581"><ele>359.32</ele><time>2026-04-12T02:35:00.000Z</time></trkpt>
        <trkpt lat="28.5083414" lon="105.1512529"><ele>360.02</ele><time>2026-04-12T02:35:15.000Z</time></trkpt>
        <trkpt lat="28.5083411" lon="105.151206"><ele>360.27</ele><time>2026-04-12T02:35:23.000Z</time></trkpt>
        <trkpt lat="28.5083828" lon="105.1512709"><ele>361.57</ele><time>2026-04-12T02:36:01.000Z</time></trkpt>
        <trkpt lat="28.5083881" lon="105.151387"><ele>363.6</ele><time>2026-04-12T02:36:11.000Z</time></trkpt>
        <trkpt lat="28.5084463" lon="105.1514773"><ele>365.15</ele><time>2026-04-12T02:36:27.000Z</time></trkpt>
        <trkpt lat="28.5084463" lon="105.1514773"><ele>365.15</ele><time>2026-04-12T02:36:39.000Z</time></trkpt>
      </trkseg>
  </trk>
</gpx>